<?xml version="1.0" encoding="UTF-8" standalone="no" ?>
<gpx xmlns="http://www.topografix.com/GPX/1/1" xmlns:xsi="http://www.w3.org/2001/XMLSchema-instance" xsi:schemaLocation="http://www.topografix.com/GPX/1/1 http://www.topografix.com/GPX/1/1/gpx.xsd" version="1.1" creator="VisuGPX - https://www.visugpx.com">
  <metadata>
    <name>Toulouse - Bessières boucle</name>
  </metadata>
  <trk>
    <name><![CDATA[Toulouse - Bessières boucle]]></name>
    <trkseg>
      <trkpt lat="43.79977" lon="1.60654">
        <ele>109.852802</ele>
        <time>2022-05-07T16:06:22.238Z</time>
      </trkpt>
      <trkpt lat="43.79932" lon="1.60654">
        <ele>109.852802</ele>
        <time>2022-05-07T16:06:32.002Z</time>
      </trkpt>
      <trkpt lat="43.79873" lon="1.60646">
        <ele>109.787235</ele>
        <time>2022-05-07T16:06:45.058Z</time>
      </trkpt>
      <trkpt lat="43.79767" lon="1.6061">
        <ele>109.284211</ele>
        <time>2022-05-07T16:07:07.354Z</time>
      </trkpt>
      <trkpt lat="43.79688" lon="1.60583">
        <ele>108.881465</ele>
        <time>2022-05-07T16:07:24.128Z</time>
      </trkpt>
      <trkpt lat="43.79632" lon="1.60562">
        <ele>108.564032</ele>
        <time>2022-05-07T16:07:35.919Z</time>
      </trkpt>
      <trkpt lat="43.79616" lon="1.60558">
        <ele>108.476145</ele>
        <time>2022-05-07T16:07:39.089Z</time>
      </trkpt>
      <trkpt lat="43.79602" lon="1.60543">
        <ele>108.379506</ele>
        <time>2022-05-07T16:07:42.706Z</time>
      </trkpt>
      <trkpt lat="43.79597" lon="1.60525">
        <ele>108.303621</ele>
        <time>2022-05-07T16:07:45.470Z</time>
      </trkpt>
      <trkpt lat="43.79604" lon="1.60446">
        <ele>108.007752</ele>
        <time>2022-05-07T16:07:57.179Z</time>
      </trkpt>
      <trkpt lat="43.79619" lon="1.60397">
        <ele>107.894822</ele>
        <time>2022-05-07T16:08:05.283Z</time>
      </trkpt>
      <trkpt lat="43.79648" lon="1.60324">
        <ele>107.715675</ele>
        <time>2022-05-07T16:08:18.266Z</time>
      </trkpt>
      <trkpt lat="43.79658" lon="1.60298">
        <ele>107.653193</ele>
        <time>2022-05-07T16:08:22.651Z</time>
      </trkpt>
      <trkpt lat="43.79656" lon="1.60291">
        <ele>107.635706</ele>
        <time>2022-05-07T16:08:23.894Z</time>
      </trkpt>
      <trkpt lat="43.79649" lon="1.60285">
        <ele>107.611724</ele>
        <time>2022-05-07T16:08:25.684Z</time>
      </trkpt>
      <trkpt lat="43.79647" lon="1.60284">
        <ele>107.605989</ele>
        <time>2022-05-07T16:08:26.102Z</time>
      </trkpt>
      <trkpt lat="43.79636" lon="1.60276">
        <ele>107.568051</ele>
        <time>2022-05-07T16:08:28.807Z</time>
      </trkpt>
      <trkpt lat="43.79622" lon="1.60265">
        <ele>107.520771</ele>
        <time>2022-05-07T16:08:32.169Z</time>
      </trkpt>
      <trkpt lat="43.79619" lon="1.60252">
        <ele>107.497026</ele>
        <time>2022-05-07T16:08:34.379Z</time>
      </trkpt>
      <trkpt lat="43.7961" lon="1.60254">
        <ele>107.489137</ele>
        <time>2022-05-07T16:08:36.384Z</time>
      </trkpt>
      <trkpt lat="43.79609" lon="1.60263">
        <ele>107.483747</ele>
        <time>2022-05-07T16:08:37.730Z</time>
      </trkpt>
      <trkpt lat="43.79584" lon="1.60262">
        <ele>107.463687</ele>
        <time>2022-05-07T16:08:43.195Z</time>
      </trkpt>
      <trkpt lat="43.79465" lon="1.60199">
        <ele>107.357987</ele>
        <time>2022-05-07T16:09:12.588Z</time>
      </trkpt>
      <trkpt lat="43.79391" lon="1.60169">
        <ele>107.464198</ele>
        <time>2022-05-07T16:09:30.711Z</time>
      </trkpt>
      <trkpt lat="43.79284" lon="1.60151">
        <ele>107.643608</ele>
        <time>2022-05-07T16:09:56.245Z</time>
      </trkpt>
      <trkpt lat="43.79178" lon="1.60106">
        <ele>107.953787</ele>
        <time>2022-05-07T16:10:23.769Z</time>
      </trkpt>
      <trkpt lat="43.79166" lon="1.60099">
        <ele>107.990447</ele>
        <time>2022-05-07T16:10:27.027Z</time>
      </trkpt>
      <trkpt lat="43.79069" lon="1.60021">
        <ele>108.248797</ele>
        <time>2022-05-07T16:10:53.890Z</time>
      </trkpt>
      <trkpt lat="43.79012" lon="1.59977">
        <ele>108.360544</ele>
        <time>2022-05-07T16:11:09.511Z</time>
      </trkpt>
      <trkpt lat="43.78956" lon="1.59961">
        <ele>108.457641</ele>
        <time>2022-05-07T16:11:22.920Z</time>
      </trkpt>
      <trkpt lat="43.78884" lon="1.59946">
        <ele>108.538996</ele>
        <time>2022-05-07T16:11:39.875Z</time>
      </trkpt>
      <trkpt lat="43.78809" lon="1.59912">
        <ele>108.623634</ele>
        <time>2022-05-07T16:11:58.643Z</time>
      </trkpt>
      <trkpt lat="43.78733" lon="1.59859">
        <ele>108.940756</ele>
        <time>2022-05-07T16:12:18.916Z</time>
      </trkpt>
      <trkpt lat="43.7861" lon="1.59796">
        <ele>109.667351</ele>
        <time>2022-05-07T16:12:52.139Z</time>
      </trkpt>
      <trkpt lat="43.78558" lon="1.59763">
        <ele>110.272423</ele>
        <time>2022-05-07T16:13:09.082Z</time>
      </trkpt>
      <trkpt lat="43.78511" lon="1.59729">
        <ele>110.823077</ele>
        <time>2022-05-07T16:13:23.693Z</time>
      </trkpt>
      <trkpt lat="43.78469" lon="1.59702">
        <ele>111.300432</ele>
        <time>2022-05-07T16:13:36.076Z</time>
      </trkpt>
      <trkpt lat="43.78453" lon="1.59692">
        <ele>111.489736</ele>
        <time>2022-05-07T16:13:40.795Z</time>
      </trkpt>
      <trkpt lat="43.78412" lon="1.59668">
        <ele>111.663465</ele>
        <time>2022-05-07T16:13:52.684Z</time>
      </trkpt>
      <trkpt lat="43.78385" lon="1.59665">
        <ele>111.758584</ele>
        <time>2022-05-07T16:13:59.857Z</time>
      </trkpt>
      <trkpt lat="43.78379" lon="1.59653">
        <ele>111.79439</ele>
        <time>2022-05-07T16:14:02.550Z</time>
      </trkpt>
      <trkpt lat="43.78369" lon="1.59652">
        <ele>111.830198</ele>
        <time>2022-05-07T16:14:05.193Z</time>
      </trkpt>
      <trkpt lat="43.78364" lon="1.59657">
        <ele>111.848783</ele>
        <time>2022-05-07T16:14:06.448Z</time>
      </trkpt>
      <trkpt lat="43.78363" lon="1.59671">
        <ele>111.884973</ele>
        <time>2022-05-07T16:14:08.995Z</time>
      </trkpt>
      <trkpt lat="43.78367" lon="1.5968">
        <ele>111.912213</ele>
        <time>2022-05-07T16:14:10.926Z</time>
      </trkpt>
      <trkpt lat="43.78375" lon="1.59682">
        <ele>111.939215</ele>
        <time>2022-05-07T16:14:12.813Z</time>
      </trkpt>
      <trkpt lat="43.78375" lon="1.59702">
        <ele>111.989353</ele>
        <time>2022-05-07T16:14:15.922Z</time>
      </trkpt>
      <trkpt lat="43.78334" lon="1.59871">
        <ele>112.071174</ele>
        <time>2022-05-07T16:14:44.223Z</time>
      </trkpt>
      <trkpt lat="43.78267" lon="1.59873">
        <ele>112.013587</ele>
        <time>2022-05-07T16:14:59.022Z</time>
      </trkpt>
      <trkpt lat="43.78224" lon="1.59859">
        <ele>112.105794</ele>
        <time>2022-05-07T16:15:08.998Z</time>
      </trkpt>
      <trkpt lat="43.78127" lon="1.59798">
        <ele>112.949126</ele>
        <time>2022-05-07T16:15:34.982Z</time>
      </trkpt>
      <trkpt lat="43.78077" lon="1.59774">
        <ele>113.371173</ele>
        <time>2022-05-07T16:15:49.382Z</time>
      </trkpt>
      <trkpt lat="43.77756" lon="1.59543">
        <ele>120.374944</ele>
        <time>2022-05-07T16:17:39.751Z</time>
      </trkpt>
      <trkpt lat="43.77714" lon="1.59526">
        <ele>120.766741</ele>
        <time>2022-05-07T16:17:51.763Z</time>
      </trkpt>
      <trkpt lat="43.77584" lon="1.59522">
        <ele>121.801037</ele>
        <time>2022-05-07T16:18:23.714Z</time>
      </trkpt>
      <trkpt lat="43.77472" lon="1.59526">
        <ele>122.304968</ele>
        <time>2022-05-07T16:18:49.786Z</time>
      </trkpt>
      <trkpt lat="43.7744" lon="1.59509">
        <ele>122.451212</ele>
        <time>2022-05-07T16:18:58.146Z</time>
      </trkpt>
      <trkpt lat="43.77324" lon="1.59427">
        <ele>122.991587</ele>
        <time>2022-05-07T16:19:29.610Z</time>
      </trkpt>
      <trkpt lat="43.77232" lon="1.59372">
        <ele>123.429455</ele>
        <time>2022-05-07T16:19:53.371Z</time>
      </trkpt>
      <trkpt lat="43.77154" lon="1.59292">
        <ele>124.050967</ele>
        <time>2022-05-07T16:20:16.114Z</time>
      </trkpt>
      <trkpt lat="43.77115" lon="1.59232">
        <ele>124.427083</ele>
        <time>2022-05-07T16:20:30.860Z</time>
      </trkpt>
      <trkpt lat="43.77114" lon="1.59232">
        <ele>124.429758</ele>
        <time>2022-05-07T16:20:30.911Z</time>
      </trkpt>
      <trkpt lat="43.77107" lon="1.59209">
        <ele>124.553822</ele>
        <time>2022-05-07T16:20:36.293Z</time>
      </trkpt>
      <trkpt lat="43.77081" lon="1.59032">
        <ele>126.368716</ele>
        <time>2022-05-07T16:21:13.261Z</time>
      </trkpt>
      <trkpt lat="43.77078" lon="1.59024">
        <ele>126.463562</ele>
        <time>2022-05-07T16:21:15.708Z</time>
      </trkpt>
      <trkpt lat="43.77069" lon="1.59023">
        <ele>126.582923</ele>
        <time>2022-05-07T16:21:18.324Z</time>
      </trkpt>
      <trkpt lat="43.77182" lon="1.58893">
        <ele>127.313701</ele>
        <time>2022-05-07T16:21:57.084Z</time>
      </trkpt>
      <trkpt lat="43.77313" lon="1.58778">
        <ele>126.778613</ele>
        <time>2022-05-07T16:22:28.731Z</time>
      </trkpt>
      <trkpt lat="43.77385" lon="1.58715">
        <ele>126.105437</ele>
        <time>2022-05-07T16:22:46.450Z</time>
      </trkpt>
      <trkpt lat="43.77472" lon="1.58638">
        <ele>125.664333</ele>
        <time>2022-05-07T16:23:08.891Z</time>
      </trkpt>
      <trkpt lat="43.7753" lon="1.58593">
        <ele>125.391403</ele>
        <time>2022-05-07T16:23:23.581Z</time>
      </trkpt>
      <trkpt lat="43.77563" lon="1.58579">
        <ele>125.260415</ele>
        <time>2022-05-07T16:23:31.173Z</time>
      </trkpt>
      <trkpt lat="43.77608" lon="1.58578">
        <ele>125.101964</ele>
        <time>2022-05-07T16:23:40.910Z</time>
      </trkpt>
      <trkpt lat="43.77628" lon="1.58592">
        <ele>125.022967</ele>
        <time>2022-05-07T16:23:45.688Z</time>
      </trkpt>
      <trkpt lat="43.77643" lon="1.58594">
        <ele>124.97132</ele>
        <time>2022-05-07T16:23:48.804Z</time>
      </trkpt>
      <trkpt lat="43.77772" lon="1.58518">
        <ele>124.87785</ele>
        <time>2022-05-07T16:24:19.980Z</time>
      </trkpt>
      <trkpt lat="43.77854" lon="1.58445">
        <ele>125.171463</ele>
        <time>2022-05-07T16:24:44.981Z</time>
      </trkpt>
      <trkpt lat="43.77954" lon="1.58275">
        <ele>125.781809</ele>
        <time>2022-05-07T16:25:25.602Z</time>
      </trkpt>
      <trkpt lat="43.77988" lon="1.58227">
        <ele>125.903587</ele>
        <time>2022-05-07T16:25:36.938Z</time>
      </trkpt>
      <trkpt lat="43.78018" lon="1.58203">
        <ele>125.638593</ele>
        <time>2022-05-07T16:25:44.307Z</time>
      </trkpt>
      <trkpt lat="43.78141" lon="1.58203">
        <ele>124.677153</ele>
        <time>2022-05-07T16:26:09.208Z</time>
      </trkpt>
      <trkpt lat="43.78169" lon="1.58199">
        <ele>124.47619</ele>
        <time>2022-05-07T16:26:14.778Z</time>
      </trkpt>
      <trkpt lat="43.78255" lon="1.5817">
        <ele>123.90177</ele>
        <time>2022-05-07T16:26:32.807Z</time>
      </trkpt>
      <trkpt lat="43.7838" lon="1.581">
        <ele>123.438412</ele>
        <time>2022-05-07T16:27:02.484Z</time>
      </trkpt>
      <trkpt lat="43.7845" lon="1.58044">
        <ele>123.519353</ele>
        <time>2022-05-07T16:27:22.501Z</time>
      </trkpt>
      <trkpt lat="43.78489" lon="1.58003">
        <ele>123.569403</ele>
        <time>2022-05-07T16:27:34.488Z</time>
      </trkpt>
      <trkpt lat="43.78569" lon="1.57903">
        <ele>123.72913</ele>
        <time>2022-05-07T16:28:00.683Z</time>
      </trkpt>
      <trkpt lat="43.7865" lon="1.5777">
        <ele>123.516473</ele>
        <time>2022-05-07T16:28:29.419Z</time>
      </trkpt>
      <trkpt lat="43.78677" lon="1.57707">
        <ele>123.233881</ele>
        <time>2022-05-07T16:28:40.744Z</time>
      </trkpt>
      <trkpt lat="43.7869" lon="1.5766">
        <ele>123.044091</ele>
        <time>2022-05-07T16:28:48.062Z</time>
      </trkpt>
      <trkpt lat="43.78725" lon="1.57571">
        <ele>122.659246</ele>
        <time>2022-05-07T16:29:02.772Z</time>
      </trkpt>
      <trkpt lat="43.78764" lon="1.57455">
        <ele>122.178926</ele>
        <time>2022-05-07T16:29:23.014Z</time>
      </trkpt>
      <trkpt lat="43.78796" lon="1.57385">
        <ele>121.922761</ele>
        <time>2022-05-07T16:29:35.957Z</time>
      </trkpt>
      <trkpt lat="43.78778" lon="1.57368">
        <ele>121.894649</ele>
        <time>2022-05-07T16:29:40.781Z</time>
      </trkpt>
      <trkpt lat="43.78757" lon="1.57346">
        <ele>121.860389</ele>
        <time>2022-05-07T16:29:46.472Z</time>
      </trkpt>
      <trkpt lat="43.78722" lon="1.57291">
        <ele>121.790751</ele>
        <time>2022-05-07T16:29:58.194Z</time>
      </trkpt>
      <trkpt lat="43.78705" lon="1.57236">
        <ele>121.734483</ele>
        <time>2022-05-07T16:30:07.791Z</time>
      </trkpt>
      <trkpt lat="43.787" lon="1.57172">
        <ele>121.548295</ele>
        <time>2022-05-07T16:30:18.173Z</time>
      </trkpt>
      <trkpt lat="43.78713" lon="1.56861">
        <ele>120.43057</ele>
        <time>2022-05-07T16:31:02.754Z</time>
      </trkpt>
      <trkpt lat="43.78714" lon="1.56799">
        <ele>120.341769</ele>
        <time>2022-05-07T16:31:12.486Z</time>
      </trkpt>
      <trkpt lat="43.78709" lon="1.56764">
        <ele>120.291091</ele>
        <time>2022-05-07T16:31:18.272Z</time>
      </trkpt>
      <trkpt lat="43.78691" lon="1.5672">
        <ele>120.218831</ele>
        <time>2022-05-07T16:31:26.798Z</time>
      </trkpt>
      <trkpt lat="43.78629" lon="1.5662">
        <ele>120.890501</ele>
        <time>2022-05-07T16:31:50.372Z</time>
      </trkpt>
      <trkpt lat="43.78434" lon="1.564">
        <ele>123.160294</ele>
        <time>2022-05-07T16:32:55.805Z</time>
      </trkpt>
      <trkpt lat="43.78284" lon="1.56188">
        <ele>125.388994</ele>
        <time>2022-05-07T16:33:53.522Z</time>
      </trkpt>
      <trkpt lat="43.78267" lon="1.56145">
        <ele>125.583996</ele>
        <time>2022-05-07T16:34:02.138Z</time>
      </trkpt>
      <trkpt lat="43.78253" lon="1.56083">
        <ele>125.844219</ele>
        <time>2022-05-07T16:34:13.247Z</time>
      </trkpt>
      <trkpt lat="43.7823" lon="1.55909">
        <ele>126.559731</ele>
        <time>2022-05-07T16:34:44.036Z</time>
      </trkpt>
      <trkpt lat="43.782" lon="1.55747">
        <ele>127.249343</ele>
        <time>2022-05-07T16:35:13.964Z</time>
      </trkpt>
      <trkpt lat="43.78194" lon="1.55713">
        <ele>127.304463</ele>
        <time>2022-05-07T16:35:20.176Z</time>
      </trkpt>
      <trkpt lat="43.78192" lon="1.55702">
        <ele>127.302996</ele>
        <time>2022-05-07T16:35:22.139Z</time>
      </trkpt>
      <trkpt lat="43.78191" lon="1.55695">
        <ele>127.302122</ele>
        <time>2022-05-07T16:35:23.280Z</time>
      </trkpt>
      <trkpt lat="43.78206" lon="1.55655">
        <ele>127.29623</ele>
        <time>2022-05-07T16:35:31.061Z</time>
      </trkpt>
      <trkpt lat="43.7822" lon="1.55636">
        <ele>127.292657</ele>
        <time>2022-05-07T16:35:35.597Z</time>
      </trkpt>
      <trkpt lat="43.78189" lon="1.55646">
        <ele>127.28683</ele>
        <time>2022-05-07T16:35:42.658Z</time>
      </trkpt>
      <trkpt lat="43.78165" lon="1.55401">
        <ele>126.875941</ele>
        <time>2022-05-07T16:36:20.544Z</time>
      </trkpt>
      <trkpt lat="43.78143" lon="1.55351">
        <ele>126.721291</ele>
        <time>2022-05-07T16:36:30.161Z</time>
      </trkpt>
      <trkpt lat="43.78085" lon="1.55257">
        <ele>127.003629</ele>
        <time>2022-05-07T16:36:51.393Z</time>
      </trkpt>
      <trkpt lat="43.77997" lon="1.55109">
        <ele>128.020018</ele>
        <time>2022-05-07T16:37:27.699Z</time>
      </trkpt>
      <trkpt lat="43.77977" lon="1.55023">
        <ele>128.970609</ele>
        <time>2022-05-07T16:37:46.329Z</time>
      </trkpt>
      <trkpt lat="43.77966" lon="1.54998">
        <ele>129.278347</ele>
        <time>2022-05-07T16:37:52.528Z</time>
      </trkpt>
      <trkpt lat="43.77777" lon="1.5474">
        <ele>133.94715</ele>
        <time>2022-05-07T16:39:13.642Z</time>
      </trkpt>
      <trkpt lat="43.77708" lon="1.54646">
        <ele>136.167149</ele>
        <time>2022-05-07T16:39:42.902Z</time>
      </trkpt>
      <trkpt lat="43.777" lon="1.54637">
        <ele>136.406269</ele>
        <time>2022-05-07T16:39:46.101Z</time>
      </trkpt>
      <trkpt lat="43.7745" lon="1.54315">
        <ele>147.394681</ele>
        <time>2022-05-07T16:41:49.736Z</time>
      </trkpt>
      <trkpt lat="43.77329" lon="1.5418">
        <ele>152.725563</ele>
        <time>2022-05-07T16:42:52.763Z</time>
      </trkpt>
      <trkpt lat="43.77243" lon="1.54092">
        <ele>155.934733</ele>
        <time>2022-05-07T16:43:29.244Z</time>
      </trkpt>
      <trkpt lat="43.77385" lon="1.53955">
        <ele>156.237978</ele>
        <time>2022-05-07T16:44:07.696Z</time>
      </trkpt>
      <trkpt lat="43.77457" lon="1.53911">
        <ele>155.388776</ele>
        <time>2022-05-07T16:44:22.177Z</time>
      </trkpt>
      <trkpt lat="43.77505" lon="1.53873">
        <ele>154.768427</ele>
        <time>2022-05-07T16:44:32.782Z</time>
      </trkpt>
      <trkpt lat="43.77643" lon="1.53734">
        <ele>152.188917</ele>
        <time>2022-05-07T16:45:05.079Z</time>
      </trkpt>
      <trkpt lat="43.77768" lon="1.53583">
        <ele>148.151845</ele>
        <time>2022-05-07T16:45:32.955Z</time>
      </trkpt>
      <trkpt lat="43.77814" lon="1.53522">
        <ele>146.334664</ele>
        <time>2022-05-07T16:45:43.310Z</time>
      </trkpt>
      <trkpt lat="43.77829" lon="1.53511">
        <ele>145.89654</ele>
        <time>2022-05-07T16:45:46.026Z</time>
      </trkpt>
      <trkpt lat="43.77838" lon="1.53508">
        <ele>145.654686</ele>
        <time>2022-05-07T16:45:47.661Z</time>
      </trkpt>
      <trkpt lat="43.77851" lon="1.53507">
        <ele>145.338668</ele>
        <time>2022-05-07T16:45:49.770Z</time>
      </trkpt>
      <trkpt lat="43.77886" lon="1.53501">
        <ele>144.471703</ele>
        <time>2022-05-07T16:45:55.618Z</time>
      </trkpt>
      <trkpt lat="43.77894" lon="1.53496">
        <ele>144.265099</ele>
        <time>2022-05-07T16:45:57.028Z</time>
      </trkpt>
      <trkpt lat="43.78019" lon="1.53317">
        <ele>140.5233</ele>
        <time>2022-05-07T16:46:28.599Z</time>
      </trkpt>
      <trkpt lat="43.78169" lon="1.53124">
        <ele>138.278586</ele>
        <time>2022-05-07T16:47:07.044Z</time>
      </trkpt>
      <trkpt lat="43.78195" lon="1.53078">
        <ele>138.024597</ele>
        <time>2022-05-07T16:47:15.251Z</time>
      </trkpt>
      <trkpt lat="43.78225" lon="1.52972">
        <ele>139.582613</ele>
        <time>2022-05-07T16:47:37.100Z</time>
      </trkpt>
      <trkpt lat="43.78253" lon="1.52897">
        <ele>141.941329</ele>
        <time>2022-05-07T16:47:58.966Z</time>
      </trkpt>
      <trkpt lat="43.78023" lon="1.52877">
        <ele>154.359735</ele>
        <time>2022-05-07T16:49:51.164Z</time>
      </trkpt>
      <trkpt lat="43.77984" lon="1.52855">
        <ele>156.571495</ele>
        <time>2022-05-07T16:50:09.700Z</time>
      </trkpt>
      <trkpt lat="43.7792" lon="1.52799">
        <ele>159.908627</ele>
        <time>2022-05-07T16:50:40.316Z</time>
      </trkpt>
      <trkpt lat="43.77904" lon="1.52784">
        <ele>160.79249</ele>
        <time>2022-05-07T16:50:48.066Z</time>
      </trkpt>
      <trkpt lat="43.77829" lon="1.52694">
        <ele>165.31895</ele>
        <time>2022-05-07T16:51:26.048Z</time>
      </trkpt>
      <trkpt lat="43.77689" lon="1.52607">
        <ele>172.679514</ele>
        <time>2022-05-07T16:52:35.889Z</time>
      </trkpt>
      <trkpt lat="43.7757" lon="1.52491">
        <ele>176.144943</ele>
        <time>2022-05-07T16:53:27.644Z</time>
      </trkpt>
      <trkpt lat="43.77562" lon="1.52476">
        <ele>176.463376</ele>
        <time>2022-05-07T16:53:30.805Z</time>
      </trkpt>
      <trkpt lat="43.77622" lon="1.52397">
        <ele>174.421463</ele>
        <time>2022-05-07T16:53:45.530Z</time>
      </trkpt>
      <trkpt lat="43.7768" lon="1.52345">
        <ele>172.096608</ele>
        <time>2022-05-07T16:53:56.505Z</time>
      </trkpt>
      <trkpt lat="43.77827" lon="1.52229">
        <ele>166.24139</ele>
        <time>2022-05-07T16:54:24.001Z</time>
      </trkpt>
      <trkpt lat="43.77851" lon="1.52191">
        <ele>164.970937</ele>
        <time>2022-05-07T16:54:30.810Z</time>
      </trkpt>
      <trkpt lat="43.78053" lon="1.51768">
        <ele>160.521828</ele>
        <time>2022-05-07T16:55:44.584Z</time>
      </trkpt>
      <trkpt lat="43.78069" lon="1.51745">
        <ele>160.005778</ele>
        <time>2022-05-07T16:55:49.233Z</time>
      </trkpt>
      <trkpt lat="43.78087" lon="1.51731">
        <ele>159.409112</ele>
        <time>2022-05-07T16:55:53.185Z</time>
      </trkpt>
      <trkpt lat="43.7812" lon="1.51716">
        <ele>158.417827</ele>
        <time>2022-05-07T16:55:59.733Z</time>
      </trkpt>
      <trkpt lat="43.78185" lon="1.51704">
        <ele>156.50657</ele>
        <time>2022-05-07T16:56:11.245Z</time>
      </trkpt>
      <trkpt lat="43.78274" lon="1.51691">
        <ele>152.447824</ele>
        <time>2022-05-07T16:56:25.342Z</time>
      </trkpt>
      <trkpt lat="43.78463" lon="1.51646">
        <ele>141.470746</ele>
        <time>2022-05-07T16:56:54.335Z</time>
      </trkpt>
      <trkpt lat="43.78497" lon="1.5163">
        <ele>139.867965</ele>
        <time>2022-05-07T16:56:59.978Z</time>
      </trkpt>
      <trkpt lat="43.78517" lon="1.51608">
        <ele>138.700279</ele>
        <time>2022-05-07T16:57:04.237Z</time>
      </trkpt>
      <trkpt lat="43.78549" lon="1.51549">
        <ele>136.322199</ele>
        <time>2022-05-07T16:57:13.333Z</time>
      </trkpt>
      <trkpt lat="43.78737" lon="1.51314">
        <ele>133.907609</ele>
        <time>2022-05-07T16:58:04.581Z</time>
      </trkpt>
      <trkpt lat="43.78747" lon="1.51292">
        <ele>133.950218</ele>
        <time>2022-05-07T16:58:08.799Z</time>
      </trkpt>
      <trkpt lat="43.7874" lon="1.51277">
        <ele>133.979277</ele>
        <time>2022-05-07T16:58:11.997Z</time>
      </trkpt>
      <trkpt lat="43.78691" lon="1.51223">
        <ele>134.121857</ele>
        <time>2022-05-07T16:58:28.780Z</time>
      </trkpt>
      <trkpt lat="43.78638" lon="1.51116">
        <ele>134.943866</ele>
        <time>2022-05-07T16:58:56.978Z</time>
      </trkpt>
      <trkpt lat="43.78569" lon="1.5107">
        <ele>135.760943</ele>
        <time>2022-05-07T16:59:18.204Z</time>
      </trkpt>
      <trkpt lat="43.78567" lon="1.51065">
        <ele>135.806966</ele>
        <time>2022-05-07T16:59:19.351Z</time>
      </trkpt>
      <trkpt lat="43.78624" lon="1.50941">
        <ele>135.391491</ele>
        <time>2022-05-07T16:59:42.940Z</time>
      </trkpt>
      <trkpt lat="43.7875" lon="1.50752">
        <ele>133.385921</ele>
        <time>2022-05-07T17:00:16.482Z</time>
      </trkpt>
      <trkpt lat="43.78776" lon="1.50732">
        <ele>132.994342</ele>
        <time>2022-05-07T17:00:22.002Z</time>
      </trkpt>
      <trkpt lat="43.78821" lon="1.50711">
        <ele>132.359122</ele>
        <time>2022-05-07T17:00:31.140Z</time>
      </trkpt>
      <trkpt lat="43.78945" lon="1.50676">
        <ele>131.263448</ele>
        <time>2022-05-07T17:00:55.892Z</time>
      </trkpt>
      <trkpt lat="43.79033" lon="1.50613">
        <ele>130.650767</ele>
        <time>2022-05-07T17:01:16.009Z</time>
      </trkpt>
      <trkpt lat="43.79042" lon="1.50605">
        <ele>130.628158</ele>
        <time>2022-05-07T17:01:18.200Z</time>
      </trkpt>
      <trkpt lat="43.79101" lon="1.50559">
        <ele>130.479454</ele>
        <time>2022-05-07T17:01:32.351Z</time>
      </trkpt>
      <trkpt lat="43.79207" lon="1.50447">
        <ele>130.702036</ele>
        <time>2022-05-07T17:02:02.732Z</time>
      </trkpt>
      <trkpt lat="43.79209" lon="1.50445">
        <ele>130.71666</ele>
        <time>2022-05-07T17:02:03.308Z</time>
      </trkpt>
      <trkpt lat="43.79337" lon="1.5031">
        <ele>132.429114</ele>
        <time>2022-05-07T17:02:44.284Z</time>
      </trkpt>
      <trkpt lat="43.79071" lon="1.49687">
        <ele>144.781578</ele>
        <time>2022-05-07T17:05:31.873Z</time>
      </trkpt>
      <trkpt lat="43.79039" lon="1.49611">
        <ele>146.734606</ele>
        <time>2022-05-07T17:05:54.882Z</time>
      </trkpt>
      <trkpt lat="43.79034" lon="1.496">
        <ele>147.025388</ele>
        <time>2022-05-07T17:05:58.203Z</time>
      </trkpt>
      <trkpt lat="43.79026" lon="1.49581">
        <ele>147.507478</ele>
        <time>2022-05-07T17:06:04.003Z</time>
      </trkpt>
      <trkpt lat="43.78929" lon="1.4935">
        <ele>152.871418</ele>
        <time>2022-05-07T17:07:09.734Z</time>
      </trkpt>
      <trkpt lat="43.78764" lon="1.49116">
        <ele>157.574535</ele>
        <time>2022-05-07T17:08:19.475Z</time>
      </trkpt>
      <trkpt lat="43.78715" lon="1.48986">
        <ele>158.904213</ele>
        <time>2022-05-07T17:08:49.304Z</time>
      </trkpt>
      <trkpt lat="43.78678" lon="1.48905">
        <ele>159.767258</ele>
        <time>2022-05-07T17:09:07.250Z</time>
      </trkpt>
      <trkpt lat="43.78653" lon="1.48854">
        <ele>160.157997</ele>
        <time>2022-05-07T17:09:18.176Z</time>
      </trkpt>
      <trkpt lat="43.78571" lon="1.4866">
        <ele>161.691438</ele>
        <time>2022-05-07T17:10:00.205Z</time>
      </trkpt>
      <trkpt lat="43.78557" lon="1.48636">
        <ele>161.959077</ele>
        <time>2022-05-07T17:10:05.890Z</time>
      </trkpt>
      <trkpt lat="43.7854" lon="1.48617">
        <ele>162.220004</ele>
        <time>2022-05-07T17:10:11.924Z</time>
      </trkpt>
      <trkpt lat="43.7836" lon="1.4856">
        <ele>164.549076</ele>
        <time>2022-05-07T17:11:02.566Z</time>
      </trkpt>
      <trkpt lat="43.78284" lon="1.48528">
        <ele>165.631437</ele>
        <time>2022-05-07T17:11:23.392Z</time>
      </trkpt>
      <trkpt lat="43.78221" lon="1.48499">
        <ele>167.243159</ele>
        <time>2022-05-07T17:11:43.602Z</time>
      </trkpt>
      <trkpt lat="43.78192" lon="1.48485">
        <ele>168.189842</ele>
        <time>2022-05-07T17:11:54.296Z</time>
      </trkpt>
      <trkpt lat="43.78164" lon="1.48463">
        <ele>169.15778</ele>
        <time>2022-05-07T17:12:05.619Z</time>
      </trkpt>
      <trkpt lat="43.7814" lon="1.48438">
        <ele>170.073366</ele>
        <time>2022-05-07T17:12:16.580Z</time>
      </trkpt>
      <trkpt lat="43.78105" lon="1.48362">
        <ele>172.489978</ele>
        <time>2022-05-07T17:12:40.435Z</time>
      </trkpt>
      <trkpt lat="43.78083" lon="1.48331">
        <ele>174.107885</ele>
        <time>2022-05-07T17:12:52.208Z</time>
      </trkpt>
      <trkpt lat="43.77998" lon="1.48239">
        <ele>179.770891</ele>
        <time>2022-05-07T17:13:41.161Z</time>
      </trkpt>
      <trkpt lat="43.77967" lon="1.48198">
        <ele>182.070057</ele>
        <time>2022-05-07T17:14:01.914Z</time>
      </trkpt>
      <trkpt lat="43.77939" lon="1.48145">
        <ele>184.752755</ele>
        <time>2022-05-07T17:14:23.913Z</time>
      </trkpt>
      <trkpt lat="43.77935" lon="1.48016">
        <ele>190.030614</ele>
        <time>2022-05-07T17:15:06.096Z</time>
      </trkpt>
      <trkpt lat="43.77958" lon="1.4802">
        <ele>191.169444</ele>
        <time>2022-05-07T17:15:16.336Z</time>
      </trkpt>
      <trkpt lat="43.78051" lon="1.48094">
        <ele>194.483079</ele>
        <time>2022-05-07T17:15:55.787Z</time>
      </trkpt>
      <trkpt lat="43.78216" lon="1.48139">
        <ele>197.064248</ele>
        <time>2022-05-07T17:16:42.584Z</time>
      </trkpt>
      <trkpt lat="43.78242" lon="1.48141">
        <ele>197.213246</ele>
        <time>2022-05-07T17:16:48.890Z</time>
      </trkpt>
      <trkpt lat="43.78273" lon="1.48125">
        <ele>197.397788</ele>
        <time>2022-05-07T17:16:55.481Z</time>
      </trkpt>
      <trkpt lat="43.78301" lon="1.4811">
        <ele>197.126587</ele>
        <time>2022-05-07T17:17:01.210Z</time>
      </trkpt>
      <trkpt lat="43.78349" lon="1.48097">
        <ele>195.725445</ele>
        <time>2022-05-07T17:17:10.306Z</time>
      </trkpt>
      <trkpt lat="43.78402" lon="1.48085">
        <ele>194.200446</ele>
        <time>2022-05-07T17:17:19.504Z</time>
      </trkpt>
      <trkpt lat="43.78409" lon="1.48078">
        <ele>193.935844</ele>
        <time>2022-05-07T17:17:20.932Z</time>
      </trkpt>
      <trkpt lat="43.78496" lon="1.48004">
        <ele>189.299159</ele>
        <time>2022-05-07T17:17:36.380Z</time>
      </trkpt>
      <trkpt lat="43.7853" lon="1.47985">
        <ele>186.941803</ele>
        <time>2022-05-07T17:17:41.504Z</time>
      </trkpt>
      <trkpt lat="43.7855" lon="1.47988">
        <ele>185.597839</ele>
        <time>2022-05-07T17:17:44.399Z</time>
      </trkpt>
      <trkpt lat="43.78595" lon="1.48009">
        <ele>182.487969</ele>
        <time>2022-05-07T17:17:51.207Z</time>
      </trkpt>
      <trkpt lat="43.7866" lon="1.48057">
        <ele>177.869352</ele>
        <time>2022-05-07T17:18:01.661Z</time>
      </trkpt>
      <trkpt lat="43.78674" lon="1.48067">
        <ele>176.95258</ele>
        <time>2022-05-07T17:18:03.793Z</time>
      </trkpt>
      <trkpt lat="43.78918" lon="1.48161">
        <ele>163.735882</ele>
        <time>2022-05-07T17:18:41.787Z</time>
      </trkpt>
      <trkpt lat="43.78936" lon="1.4817">
        <ele>162.86309</ele>
        <time>2022-05-07T17:18:45.002Z</time>
      </trkpt>
      <trkpt lat="43.79053" lon="1.48251">
        <ele>159.475107</ele>
        <time>2022-05-07T17:19:07.350Z</time>
      </trkpt>
      <trkpt lat="43.79092" lon="1.48271">
        <ele>158.605002</ele>
        <time>2022-05-07T17:19:14.842Z</time>
      </trkpt>
      <trkpt lat="43.79124" lon="1.48278">
        <ele>157.93921</ele>
        <time>2022-05-07T17:19:20.606Z</time>
      </trkpt>
      <trkpt lat="43.79275" lon="1.4829">
        <ele>156.700126</ele>
        <time>2022-05-07T17:19:50.148Z</time>
      </trkpt>
      <trkpt lat="43.79402" lon="1.48289">
        <ele>156.539566</ele>
        <time>2022-05-07T17:20:18.008Z</time>
      </trkpt>
      <trkpt lat="43.79418" lon="1.48304">
        <ele>156.557947</ele>
        <time>2022-05-07T17:20:22.496Z</time>
      </trkpt>
      <trkpt lat="43.79491" lon="1.48402">
        <ele>156.78158</ele>
        <time>2022-05-07T17:20:46.844Z</time>
      </trkpt>
      <trkpt lat="43.79535" lon="1.48446">
        <ele>157.025617</ele>
        <time>2022-05-07T17:20:59.801Z</time>
      </trkpt>
      <trkpt lat="43.7965" lon="1.48519">
        <ele>157.283724</ele>
        <time>2022-05-07T17:21:31.012Z</time>
      </trkpt>
      <trkpt lat="43.79749" lon="1.48617">
        <ele>156.826691</ele>
        <time>2022-05-07T17:21:56.449Z</time>
      </trkpt>
      <trkpt lat="43.79856" lon="1.48722">
        <ele>154.743887</ele>
        <time>2022-05-07T17:22:20.074Z</time>
      </trkpt>
      <trkpt lat="43.79938" lon="1.48777">
        <ele>153.160596</ele>
        <time>2022-05-07T17:22:35.571Z</time>
      </trkpt>
      <trkpt lat="43.80059" lon="1.48914">
        <ele>150.725591</ele>
        <time>2022-05-07T17:23:04.336Z</time>
      </trkpt>
      <trkpt lat="43.80183" lon="1.49011">
        <ele>149.776417</ele>
        <time>2022-05-07T17:23:33.374Z</time>
      </trkpt>
      <trkpt lat="43.80226" lon="1.49073">
        <ele>149.022234</ele>
        <time>2022-05-07T17:23:46.535Z</time>
      </trkpt>
      <trkpt lat="43.80299" lon="1.49166">
        <ele>146.800961</ele>
        <time>2022-05-07T17:24:05.238Z</time>
      </trkpt>
      <trkpt lat="43.80364" lon="1.49223">
        <ele>144.368097</ele>
        <time>2022-05-07T17:24:17.220Z</time>
      </trkpt>
      <trkpt lat="43.80502" lon="1.49363">
        <ele>134.056036</ele>
        <time>2022-05-07T17:24:41.856Z</time>
      </trkpt>
      <trkpt lat="43.80626" lon="1.49418">
        <ele>127.054062</ele>
        <time>2022-05-07T17:25:01.034Z</time>
      </trkpt>
      <trkpt lat="43.80716" lon="1.49492">
        <ele>123.47851</ele>
        <time>2022-05-07T17:25:18.101Z</time>
      </trkpt>
      <trkpt lat="43.80844" lon="1.49619">
        <ele>120.615625</ele>
        <time>2022-05-07T17:25:46.730Z</time>
      </trkpt>
      <trkpt lat="43.80931" lon="1.49677">
        <ele>119.936354</ele>
        <time>2022-05-07T17:26:06.533Z</time>
      </trkpt>
      <trkpt lat="43.81007" lon="1.49757">
        <ele>119.696815</ele>
        <time>2022-05-07T17:26:27.173Z</time>
      </trkpt>
      <trkpt lat="43.81089" lon="1.49871">
        <ele>119.792236</ele>
        <time>2022-05-07T17:26:54.013Z</time>
      </trkpt>
      <trkpt lat="43.81107" lon="1.49904">
        <ele>119.753023</ele>
        <time>2022-05-07T17:27:01.096Z</time>
      </trkpt>
      <trkpt lat="43.81142" lon="1.49991">
        <ele>119.597478</ele>
        <time>2022-05-07T17:27:17.302Z</time>
      </trkpt>
      <trkpt lat="43.81162" lon="1.50025">
        <ele>119.529069</ele>
        <time>2022-05-07T17:27:24.215Z</time>
      </trkpt>
      <trkpt lat="43.81277" lon="1.5017">
        <ele>118.346604</ele>
        <time>2022-05-07T17:27:54.873Z</time>
      </trkpt>
      <trkpt lat="43.81306" lon="1.50242">
        <ele>117.712753</ele>
        <time>2022-05-07T17:28:05.995Z</time>
      </trkpt>
      <trkpt lat="43.8132" lon="1.50261">
        <ele>117.510031</ele>
        <time>2022-05-07T17:28:09.388Z</time>
      </trkpt>
      <trkpt lat="43.81436" lon="1.50282">
        <ele>116.0418</ele>
        <time>2022-05-07T17:28:31.267Z</time>
      </trkpt>
      <trkpt lat="43.81469" lon="1.50276">
        <ele>115.627116</ele>
        <time>2022-05-07T17:28:37.397Z</time>
      </trkpt>
      <trkpt lat="43.81483" lon="1.50268">
        <ele>115.440159</ele>
        <time>2022-05-07T17:28:40.390Z</time>
      </trkpt>
      <trkpt lat="43.81486" lon="1.50268">
        <ele>115.397276</ele>
        <time>2022-05-07T17:28:41.070Z</time>
      </trkpt>
      <trkpt lat="43.81513" lon="1.50273">
        <ele>115.119139</ele>
        <time>2022-05-07T17:28:46.296Z</time>
      </trkpt>
      <trkpt lat="43.8163" lon="1.50335">
        <ele>114.026157</ele>
        <time>2022-05-07T17:29:10.891Z</time>
      </trkpt>
      <trkpt lat="43.81711" lon="1.50405">
        <ele>113.428642</ele>
        <time>2022-05-07T17:29:29.790Z</time>
      </trkpt>
      <trkpt lat="43.81716" lon="1.50522">
        <ele>113.041259</ele>
        <time>2022-05-07T17:29:47.109Z</time>
      </trkpt>
      <trkpt lat="43.81758" lon="1.50732">
        <ele>113.13502</ele>
        <time>2022-05-07T17:30:22.606Z</time>
      </trkpt>
      <trkpt lat="43.8176" lon="1.50773">
        <ele>113.203093</ele>
        <time>2022-05-07T17:30:29.829Z</time>
      </trkpt>
      <trkpt lat="43.81755" lon="1.50809">
        <ele>113.26375</ele>
        <time>2022-05-07T17:30:36.400Z</time>
      </trkpt>
      <trkpt lat="43.8175" lon="1.50824">
        <ele>113.307588</ele>
        <time>2022-05-07T17:30:39.393Z</time>
      </trkpt>
      <trkpt lat="43.81693" lon="1.50993">
        <ele>113.951912</ele>
        <time>2022-05-07T17:31:12.372Z</time>
      </trkpt>
      <trkpt lat="43.81677" lon="1.51053">
        <ele>114.165524</ele>
        <time>2022-05-07T17:31:23.132Z</time>
      </trkpt>
      <trkpt lat="43.81659" lon="1.5116">
        <ele>114.43465</ele>
        <time>2022-05-07T17:31:41.151Z</time>
      </trkpt>
      <trkpt lat="43.81661" lon="1.51244">
        <ele>114.643555</ele>
        <time>2022-05-07T17:31:55.580Z</time>
      </trkpt>
      <trkpt lat="43.81664" lon="1.51303">
        <ele>114.823962</ele>
        <time>2022-05-07T17:32:05.993Z</time>
      </trkpt>
      <trkpt lat="43.81641" lon="1.51404">
        <ele>115.349225</ele>
        <time>2022-05-07T17:32:25.026Z</time>
      </trkpt>
      <trkpt lat="43.81635" lon="1.51446">
        <ele>115.561666</ele>
        <time>2022-05-07T17:32:32.911Z</time>
      </trkpt>
      <trkpt lat="43.81639" lon="1.5151">
        <ele>115.877606</ele>
        <time>2022-05-07T17:32:44.782Z</time>
      </trkpt>
      <trkpt lat="43.81651" lon="1.51562">
        <ele>116.054496</ele>
        <time>2022-05-07T17:32:55.094Z</time>
      </trkpt>
      <trkpt lat="43.81722" lon="1.51748">
        <ele>116.464462</ele>
        <time>2022-05-07T17:33:30.028Z</time>
      </trkpt>
      <trkpt lat="43.81769" lon="1.51905">
        <ele>116.071576</ele>
        <time>2022-05-07T17:33:55.997Z</time>
      </trkpt>
      <trkpt lat="43.81803" lon="1.51986">
        <ele>115.840891</ele>
        <time>2022-05-07T17:34:09.609Z</time>
      </trkpt>
      <trkpt lat="43.81807" lon="1.52039">
        <ele>115.730541</ele>
        <time>2022-05-07T17:34:17.444Z</time>
      </trkpt>
      <trkpt lat="43.81795" lon="1.52092">
        <ele>115.614249</ele>
        <time>2022-05-07T17:34:25.995Z</time>
      </trkpt>
      <trkpt lat="43.81758" lon="1.52183">
        <ele>115.396245</ele>
        <time>2022-05-07T17:34:42.282Z</time>
      </trkpt>
      <trkpt lat="43.81746" lon="1.52215">
        <ele>115.345369</ele>
        <time>2022-05-07T17:34:47.960Z</time>
      </trkpt>
      <trkpt lat="43.81726" lon="1.52296">
        <ele>115.419395</ele>
        <time>2022-05-07T17:35:01.611Z</time>
      </trkpt>
      <trkpt lat="43.81707" lon="1.52372">
        <ele>115.488811</ele>
        <time>2022-05-07T17:35:15.032Z</time>
      </trkpt>
      <trkpt lat="43.81696" lon="1.52415">
        <ele>115.527984</ele>
        <time>2022-05-07T17:35:22.806Z</time>
      </trkpt>
      <trkpt lat="43.81688" lon="1.52448">
        <ele>115.556602</ele>
        <time>2022-05-07T17:35:28.625Z</time>
      </trkpt>
      <trkpt lat="43.81682" lon="1.52519">
        <ele>115.601176</ele>
        <time>2022-05-07T17:35:40.450Z</time>
      </trkpt>
      <trkpt lat="43.81669" lon="1.52745">
        <ele>115.740541</ele>
        <time>2022-05-07T17:36:17.127Z</time>
      </trkpt>
      <trkpt lat="43.81691" lon="1.52855">
        <ele>115.806827</ele>
        <time>2022-05-07T17:36:35.340Z</time>
      </trkpt>
      <trkpt lat="43.81698" lon="1.52919">
        <ele>115.845189</ele>
        <time>2022-05-07T17:36:46.081Z</time>
      </trkpt>
      <trkpt lat="43.81685" lon="1.53056">
        <ele>116.054845</ele>
        <time>2022-05-07T17:37:08.818Z</time>
      </trkpt>
      <trkpt lat="43.81675" lon="1.53132">
        <ele>116.182895</ele>
        <time>2022-05-07T17:37:22.125Z</time>
      </trkpt>
      <trkpt lat="43.8167" lon="1.53164">
        <ele>116.23738</ele>
        <time>2022-05-07T17:37:27.667Z</time>
      </trkpt>
      <trkpt lat="43.81669" lon="1.53172">
        <ele>116.250332</ele>
        <time>2022-05-07T17:37:28.982Z</time>
      </trkpt>
      <trkpt lat="43.81648" lon="1.53272">
        <ele>116.239287</ele>
        <time>2022-05-07T17:37:46.191Z</time>
      </trkpt>
      <trkpt lat="43.81598" lon="1.53451">
        <ele>116.011158</ele>
        <time>2022-05-07T17:38:16.249Z</time>
      </trkpt>
      <trkpt lat="43.816" lon="1.53553">
        <ele>115.508072</ele>
        <time>2022-05-07T17:38:31.339Z</time>
      </trkpt>
      <trkpt lat="43.81578" lon="1.53717">
        <ele>114.282404</ele>
        <time>2022-05-07T17:38:54.480Z</time>
      </trkpt>
      <trkpt lat="43.8157" lon="1.53748">
        <ele>113.889087</ele>
        <time>2022-05-07T17:38:58.704Z</time>
      </trkpt>
      <trkpt lat="43.8156" lon="1.53747">
        <ele>113.725157</ele>
        <time>2022-05-07T17:39:00.699Z</time>
      </trkpt>
      <trkpt lat="43.81562" lon="1.53778">
        <ele>113.354677</ele>
        <time>2022-05-07T17:39:04.584Z</time>
      </trkpt>
      <trkpt lat="43.81554" lon="1.53797">
        <ele>113.093072</ele>
        <time>2022-05-07T17:39:07.584Z</time>
      </trkpt>
      <trkpt lat="43.81555" lon="1.53806">
        <ele>112.988864</ele>
        <time>2022-05-07T17:39:08.633Z</time>
      </trkpt>
      <trkpt lat="43.81564" lon="1.53809">
        <ele>112.839305</ele>
        <time>2022-05-07T17:39:10.175Z</time>
      </trkpt>
      <trkpt lat="43.81557" lon="1.53909">
        <ele>111.468095</ele>
        <time>2022-05-07T17:39:22.862Z</time>
      </trkpt>
      <trkpt lat="43.81541" lon="1.54074">
        <ele>108.555937</ele>
        <time>2022-05-07T17:39:43.261Z</time>
      </trkpt>
      <trkpt lat="43.81516" lon="1.5419">
        <ele>106.55057</ele>
        <time>2022-05-07T17:39:57.997Z</time>
      </trkpt>
      <trkpt lat="43.8152" lon="1.54215">
        <ele>106.146933</ele>
        <time>2022-05-07T17:40:01.079Z</time>
      </trkpt>
      <trkpt lat="43.81526" lon="1.54227">
        <ele>105.912826</ele>
        <time>2022-05-07T17:40:02.922Z</time>
      </trkpt>
      <trkpt lat="43.81607" lon="1.54337">
        <ele>103.576009</ele>
        <time>2022-05-07T17:40:22.819Z</time>
      </trkpt>
      <trkpt lat="43.81613" lon="1.54352">
        <ele>103.472611</ele>
        <time>2022-05-07T17:40:25.043Z</time>
      </trkpt>
      <trkpt lat="43.81608" lon="1.54381">
        <ele>103.298844</ele>
        <time>2022-05-07T17:40:29.043Z</time>
      </trkpt>
      <trkpt lat="43.8158" lon="1.5442">
        <ele>102.977515</ele>
        <time>2022-05-07T17:40:36.988Z</time>
      </trkpt>
      <trkpt lat="43.81575" lon="1.54448">
        <ele>102.804617</ele>
        <time>2022-05-07T17:40:41.117Z</time>
      </trkpt>
      <trkpt lat="43.81587" lon="1.54461">
        <ele>102.677301</ele>
        <time>2022-05-07T17:40:44.576Z</time>
      </trkpt>
      <trkpt lat="43.8161" lon="1.5449">
        <ele>102.423603</ele>
        <time>2022-05-07T17:40:50.987Z</time>
      </trkpt>
      <trkpt lat="43.81624" lon="1.54529">
        <ele>102.186255</ele>
        <time>2022-05-07T17:40:57.529Z</time>
      </trkpt>
      <trkpt lat="43.81633" lon="1.5453">
        <ele>102.174805</ele>
        <time>2022-05-07T17:40:59.813Z</time>
      </trkpt>
      <trkpt lat="43.8164" lon="1.54519">
        <ele>102.16261</ele>
        <time>2022-05-07T17:41:02.001Z</time>
      </trkpt>
      <trkpt lat="43.81817" lon="1.54262">
        <ele>101.569615</ele>
        <time>2022-05-07T17:41:58.050Z</time>
      </trkpt>
      <trkpt lat="43.81828" lon="1.54251">
        <ele>101.511857</ele>
        <time>2022-05-07T17:42:00.838Z</time>
      </trkpt>
      <trkpt lat="43.81861" lon="1.54239">
        <ele>101.373396</ele>
        <time>2022-05-07T17:42:07.592Z</time>
      </trkpt>
      <trkpt lat="43.81887" lon="1.54246">
        <ele>101.263349</ele>
        <time>2022-05-07T17:42:12.910Z</time>
      </trkpt>
      <trkpt lat="43.81896" lon="1.54255">
        <ele>101.208243</ele>
        <time>2022-05-07T17:42:15.046Z</time>
      </trkpt>
      <trkpt lat="43.81943" lon="1.54304">
        <ele>100.844616</ele>
        <time>2022-05-07T17:42:26.460Z</time>
      </trkpt>
      <trkpt lat="43.82071" lon="1.54431">
        <ele>100.312335</ele>
        <time>2022-05-07T17:42:58.593Z</time>
      </trkpt>
      <trkpt lat="43.8231" lon="1.54667">
        <ele>102.099465</ele>
        <time>2022-05-07T17:44:13.613Z</time>
      </trkpt>
      <trkpt lat="43.82312" lon="1.54683">
        <ele>102.189876</ele>
        <time>2022-05-07T17:44:16.621Z</time>
      </trkpt>
      <trkpt lat="43.82323" lon="1.54684">
        <ele>102.273561</ele>
        <time>2022-05-07T17:44:19.371Z</time>
      </trkpt>
      <trkpt lat="43.82325" lon="1.54681">
        <ele>102.291663</ele>
        <time>2022-05-07T17:44:20.036Z</time>
      </trkpt>
      <trkpt lat="43.82506" lon="1.5486">
        <ele>103.06906</ele>
        <time>2022-05-07T17:45:12.470Z</time>
      </trkpt>
      <trkpt lat="43.82582" lon="1.54916">
        <ele>103.288015</ele>
        <time>2022-05-07T17:45:32.147Z</time>
      </trkpt>
      <trkpt lat="43.82849" lon="1.55114">
        <ele>104.217516</ele>
        <time>2022-05-07T17:46:42.494Z</time>
      </trkpt>
      <trkpt lat="43.82883" lon="1.55139">
        <ele>104.421964</ele>
        <time>2022-05-07T17:46:51.970Z</time>
      </trkpt>
      <trkpt lat="43.83081" lon="1.55288">
        <ele>106.280917</ele>
        <time>2022-05-07T17:47:49.220Z</time>
      </trkpt>
      <trkpt lat="43.83283" lon="1.55482">
        <ele>110.27132</ele>
        <time>2022-05-07T17:48:58.255Z</time>
      </trkpt>
      <trkpt lat="43.83293" lon="1.55485">
        <ele>110.541659</ele>
        <time>2022-05-07T17:49:01.402Z</time>
      </trkpt>
      <trkpt lat="43.83427" lon="1.55517">
        <ele>114.328242</ele>
        <time>2022-05-07T17:49:49.435Z</time>
      </trkpt>
      <trkpt lat="43.83435" lon="1.55532">
        <ele>114.740195</ele>
        <time>2022-05-07T17:49:54.322Z</time>
      </trkpt>
      <trkpt lat="43.83432" lon="1.55547">
        <ele>115.065619</ele>
        <time>2022-05-07T17:49:58.156Z</time>
      </trkpt>
      <trkpt lat="43.8347" lon="1.55594">
        <ele>116.630207</ele>
        <time>2022-05-07T17:50:17.480Z</time>
      </trkpt>
      <trkpt lat="43.83505" lon="1.55626">
        <ele>117.887499</ele>
        <time>2022-05-07T17:50:32.181Z</time>
      </trkpt>
      <trkpt lat="43.83516" lon="1.55673">
        <ele>118.962823</ele>
        <time>2022-05-07T17:50:44.361Z</time>
      </trkpt>
      <trkpt lat="43.8354" lon="1.55772">
        <ele>120.690205</ele>
        <time>2022-05-07T17:51:08.746Z</time>
      </trkpt>
      <trkpt lat="43.83604" lon="1.55883">
        <ele>122.789333</ele>
        <time>2022-05-07T17:51:40.335Z</time>
      </trkpt>
      <trkpt lat="43.83646" lon="1.56011">
        <ele>124.405933</ele>
        <time>2022-05-07T17:52:10.699Z</time>
      </trkpt>
      <trkpt lat="43.83658" lon="1.56051">
        <ele>124.865652</ele>
        <time>2022-05-07T17:52:19.847Z</time>
      </trkpt>
      <trkpt lat="43.83662" lon="1.56282">
        <ele>126.760688</ele>
        <time>2022-05-07T17:53:06.199Z</time>
      </trkpt>
      <trkpt lat="43.83654" lon="1.56339">
        <ele>127.144311</ele>
        <time>2022-05-07T17:53:16.944Z</time>
      </trkpt>
      <trkpt lat="43.83662" lon="1.56413">
        <ele>127.634638</ele>
        <time>2022-05-07T17:53:30.557Z</time>
      </trkpt>
      <trkpt lat="43.83648" lon="1.56601">
        <ele>128.849785</ele>
        <time>2022-05-07T17:54:06.520Z</time>
      </trkpt>
      <trkpt lat="43.83649" lon="1.56691">
        <ele>129.547882</ele>
        <time>2022-05-07T17:54:25.160Z</time>
      </trkpt>
      <trkpt lat="43.83658" lon="1.56776">
        <ele>130.289183</ele>
        <time>2022-05-07T17:54:42.824Z</time>
      </trkpt>
      <trkpt lat="43.8365" lon="1.569">
        <ele>131.438401</ele>
        <time>2022-05-07T17:55:07.129Z</time>
      </trkpt>
      <trkpt lat="43.83652" lon="1.56924">
        <ele>131.758143</ele>
        <time>2022-05-07T17:55:12.050Z</time>
      </trkpt>
      <trkpt lat="43.83661" lon="1.5694">
        <ele>132.029386</ele>
        <time>2022-05-07T17:55:16.149Z</time>
      </trkpt>
      <trkpt lat="43.83692" lon="1.56964">
        <ele>132.698799</ele>
        <time>2022-05-07T17:55:26.610Z</time>
      </trkpt>
      <trkpt lat="43.83706" lon="1.5698">
        <ele>133.040517</ele>
        <time>2022-05-07T17:55:32.124Z</time>
      </trkpt>
      <trkpt lat="43.8371" lon="1.56996">
        <ele>133.271764</ele>
        <time>2022-05-07T17:55:35.833Z</time>
      </trkpt>
      <trkpt lat="43.83706" lon="1.57044">
        <ele>133.930657</ele>
        <time>2022-05-07T17:55:47.279Z</time>
      </trkpt>
      <trkpt lat="43.83712" lon="1.57089">
        <ele>134.543574</ele>
        <time>2022-05-07T17:55:58.296Z</time>
      </trkpt>
      <trkpt lat="43.83766" lon="1.5725">
        <ele>139.438988</ele>
        <time>2022-05-07T17:56:41.262Z</time>
      </trkpt>
      <trkpt lat="43.83773" lon="1.57259">
        <ele>139.815682</ele>
        <time>2022-05-07T17:56:44.606Z</time>
      </trkpt>
      <trkpt lat="43.83791" lon="1.57266">
        <ele>140.557854</ele>
        <time>2022-05-07T17:56:55.351Z</time>
      </trkpt>
      <trkpt lat="43.83809" lon="1.57247">
        <ele>141.463305</ele>
        <time>2022-05-07T17:57:05.335Z</time>
      </trkpt>
      <trkpt lat="43.83811" lon="1.5723">
        <ele>142.165775</ele>
        <time>2022-05-07T17:57:13.655Z</time>
      </trkpt>
      <trkpt lat="43.83797" lon="1.57155">
        <ele>146.214165</ele>
        <time>2022-05-07T17:57:40.929Z</time>
      </trkpt>
      <trkpt lat="43.83802" lon="1.57135">
        <ele>147.338333</ele>
        <time>2022-05-07T17:57:49.608Z</time>
      </trkpt>
      <trkpt lat="43.83813" lon="1.57121">
        <ele>148.373143</ele>
        <time>2022-05-07T17:57:56.180Z</time>
      </trkpt>
      <trkpt lat="43.83824" lon="1.57118">
        <ele>149.240883</ele>
        <time>2022-05-07T17:58:00.192Z</time>
      </trkpt>
      <trkpt lat="43.83838" lon="1.57123">
        <ele>150.309766</ele>
        <time>2022-05-07T17:58:10.004Z</time>
      </trkpt>
      <trkpt lat="43.83864" lon="1.57183">
        <ele>153.93416</ele>
        <time>2022-05-07T17:58:34.178Z</time>
      </trkpt>
      <trkpt lat="43.83898" lon="1.57316">
        <ele>163.36542</ele>
        <time>2022-05-07T17:59:41.182Z</time>
      </trkpt>
      <trkpt lat="43.84008" lon="1.57459">
        <ele>176.474601</ele>
        <time>2022-05-07T18:01:11.066Z</time>
      </trkpt>
      <trkpt lat="43.84024" lon="1.57489">
        <ele>178.543089</ele>
        <time>2022-05-07T18:01:27.893Z</time>
      </trkpt>
      <trkpt lat="43.84077" lon="1.57642">
        <ele>186.50303</ele>
        <time>2022-05-07T18:02:26.806Z</time>
      </trkpt>
      <trkpt lat="43.84098" lon="1.57673">
        <ele>187.538787</ele>
        <time>2022-05-07T18:02:38.241Z</time>
      </trkpt>
      <trkpt lat="43.84161" lon="1.57743">
        <ele>190.303966</ele>
        <time>2022-05-07T18:03:02.820Z</time>
      </trkpt>
      <trkpt lat="43.84195" lon="1.57839">
        <ele>193.16795</ele>
        <time>2022-05-07T18:03:30.138Z</time>
      </trkpt>
      <trkpt lat="43.84211" lon="1.57872">
        <ele>194.317431</ele>
        <time>2022-05-07T18:03:41.470Z</time>
      </trkpt>
      <trkpt lat="43.84242" lon="1.57921">
        <ele>196.18067</ele>
        <time>2022-05-07T18:04:01.075Z</time>
      </trkpt>
      <trkpt lat="43.84337" lon="1.58034">
        <ele>200.775269</ele>
        <time>2022-05-07T18:04:51.902Z</time>
      </trkpt>
      <trkpt lat="43.84436" lon="1.58153">
        <ele>204.972366</ele>
        <time>2022-05-07T18:05:37.630Z</time>
      </trkpt>
      <trkpt lat="43.84457" lon="1.58169">
        <ele>205.445188</ele>
        <time>2022-05-07T18:05:45.310Z</time>
      </trkpt>
      <trkpt lat="43.84495" lon="1.58187">
        <ele>206.199431</ele>
        <time>2022-05-07T18:05:56.951Z</time>
      </trkpt>
      <trkpt lat="43.84597" lon="1.58211">
        <ele>208.198953</ele>
        <time>2022-05-07T18:06:28.188Z</time>
      </trkpt>
      <trkpt lat="43.8458" lon="1.58296">
        <ele>209.119388</ele>
        <time>2022-05-07T18:06:47.085Z</time>
      </trkpt>
      <trkpt lat="43.84563" lon="1.58338">
        <ele>209.625238</ele>
        <time>2022-05-07T18:06:56.987Z</time>
      </trkpt>
      <trkpt lat="43.84545" lon="1.58364">
        <ele>210.003767</ele>
        <time>2022-05-07T18:07:04.051Z</time>
      </trkpt>
      <trkpt lat="43.84506" lon="1.58401">
        <ele>210.678047</ele>
        <time>2022-05-07T18:07:16.276Z</time>
      </trkpt>
      <trkpt lat="43.8448" lon="1.58442">
        <ele>211.363152</ele>
        <time>2022-05-07T18:07:27.088Z</time>
      </trkpt>
      <trkpt lat="43.84451" lon="1.58568">
        <ele>213.070883</ele>
        <time>2022-05-07T18:07:54.189Z</time>
      </trkpt>
      <trkpt lat="43.84451" lon="1.5861">
        <ele>213.615259</ele>
        <time>2022-05-07T18:08:03.905Z</time>
      </trkpt>
      <trkpt lat="43.84466" lon="1.58724">
        <ele>215.448841</ele>
        <time>2022-05-07T18:08:31.312Z</time>
      </trkpt>
      <trkpt lat="43.84467" lon="1.58759">
        <ele>216.04639</ele>
        <time>2022-05-07T18:08:40.089Z</time>
      </trkpt>
      <trkpt lat="43.84461" lon="1.58794">
        <ele>216.665291</ele>
        <time>2022-05-07T18:08:49.062Z</time>
      </trkpt>
      <trkpt lat="43.84413" lon="1.58937">
        <ele>218.249303</ele>
        <time>2022-05-07T18:09:22.633Z</time>
      </trkpt>
      <trkpt lat="43.84402" lon="1.59003">
        <ele>218.232778</ele>
        <time>2022-05-07T18:09:34.230Z</time>
      </trkpt>
      <trkpt lat="43.84389" lon="1.59038">
        <ele>218.222954</ele>
        <time>2022-05-07T18:09:40.198Z</time>
      </trkpt>
      <trkpt lat="43.84331" lon="1.592">
        <ele>216.524182</ele>
        <time>2022-05-07T18:10:03.435Z</time>
      </trkpt>
      <trkpt lat="43.84316" lon="1.5927">
        <ele>215.337143</ele>
        <time>2022-05-07T18:10:12.369Z</time>
      </trkpt>
      <trkpt lat="43.84314" lon="1.59321">
        <ele>214.487428</ele>
        <time>2022-05-07T18:10:18.631Z</time>
      </trkpt>
      <trkpt lat="43.84382" lon="1.59323">
        <ele>212.583158</ele>
        <time>2022-05-07T18:10:30.394Z</time>
      </trkpt>
      <trkpt lat="43.84416" lon="1.59347">
        <ele>211.452814</ele>
        <time>2022-05-07T18:10:36.889Z</time>
      </trkpt>
      <trkpt lat="43.84471" lon="1.59413">
        <ele>209.30324</ele>
        <time>2022-05-07T18:10:49.380Z</time>
      </trkpt>
      <trkpt lat="43.84545" lon="1.59449">
        <ele>207.911532</ele>
        <time>2022-05-07T18:11:03.217Z</time>
      </trkpt>
      <trkpt lat="43.84571" lon="1.59443">
        <ele>207.543278</ele>
        <time>2022-05-07T18:11:07.853Z</time>
      </trkpt>
      <trkpt lat="43.84862" lon="1.59098">
        <ele>202.419225</ele>
        <time>2022-05-07T18:12:25.633Z</time>
      </trkpt>
      <trkpt lat="43.84939" lon="1.58987">
        <ele>200.370809</ele>
        <time>2022-05-07T18:12:46.881Z</time>
      </trkpt>
      <trkpt lat="43.84966" lon="1.58957">
        <ele>199.342966</ele>
        <time>2022-05-07T18:12:53.305Z</time>
      </trkpt>
      <trkpt lat="43.85026" lon="1.58933">
        <ele>197.499761</ele>
        <time>2022-05-07T18:13:03.863Z</time>
      </trkpt>
      <trkpt lat="43.85061" lon="1.5889">
        <ele>195.986625</ele>
        <time>2022-05-07T18:13:11.482Z</time>
      </trkpt>
      <trkpt lat="43.8509" lon="1.58874">
        <ele>194.182339</ele>
        <time>2022-05-07T18:13:16.490Z</time>
      </trkpt>
      <trkpt lat="43.8515" lon="1.58893">
        <ele>190.624917</ele>
        <time>2022-05-07T18:13:25.983Z</time>
      </trkpt>
      <trkpt lat="43.85231" lon="1.58978">
        <ele>184.496493</ele>
        <time>2022-05-07T18:13:41.330Z</time>
      </trkpt>
      <trkpt lat="43.85283" lon="1.59014">
        <ele>180.410587</ele>
        <time>2022-05-07T18:13:50.001Z</time>
      </trkpt>
      <trkpt lat="43.85381" lon="1.59051">
        <ele>173.225503</ele>
        <time>2022-05-07T18:14:05.158Z</time>
      </trkpt>
      <trkpt lat="43.85576" lon="1.59144">
        <ele>159.869189</ele>
        <time>2022-05-07T18:14:36.303Z</time>
      </trkpt>
      <trkpt lat="43.85652" lon="1.59164">
        <ele>156.496633</ele>
        <time>2022-05-07T18:14:48.715Z</time>
      </trkpt>
      <trkpt lat="43.8566" lon="1.59166">
        <ele>156.16906</ele>
        <time>2022-05-07T18:14:49.936Z</time>
      </trkpt>
      <trkpt lat="43.85745" lon="1.59158">
        <ele>152.745457</ele>
        <time>2022-05-07T18:15:04.991Z</time>
      </trkpt>
      <trkpt lat="43.85773" lon="1.59142">
        <ele>151.976226</ele>
        <time>2022-05-07T18:15:10.479Z</time>
      </trkpt>
      <trkpt lat="43.8583" lon="1.59005">
        <ele>149.104749</ele>
        <time>2022-05-07T18:15:31.130Z</time>
      </trkpt>
      <trkpt lat="43.85838" lon="1.58994">
        <ele>148.806082</ele>
        <time>2022-05-07T18:15:33.191Z</time>
      </trkpt>
      <trkpt lat="43.85853" lon="1.58991">
        <ele>148.424655</ele>
        <time>2022-05-07T18:15:35.622Z</time>
      </trkpt>
      <trkpt lat="43.85866" lon="1.59008">
        <ele>148.020863</ele>
        <time>2022-05-07T18:15:38.534Z</time>
      </trkpt>
      <trkpt lat="43.85895" lon="1.59154">
        <ele>145.438478</ele>
        <time>2022-05-07T18:15:57.407Z</time>
      </trkpt>
      <trkpt lat="43.85913" lon="1.59174">
        <ele>144.88143</ele>
        <time>2022-05-07T18:16:01.428Z</time>
      </trkpt>
      <trkpt lat="43.86148" lon="1.59319">
        <ele>145.942346</ele>
        <time>2022-05-07T18:17:05.966Z</time>
      </trkpt>
      <trkpt lat="43.86157" lon="1.5934">
        <ele>146.192944</ele>
        <time>2022-05-07T18:17:11.226Z</time>
      </trkpt>
      <trkpt lat="43.86158" lon="1.5937">
        <ele>146.494929</ele>
        <time>2022-05-07T18:17:17.627Z</time>
      </trkpt>
      <trkpt lat="43.86148" lon="1.59394">
        <ele>146.780816</ele>
        <time>2022-05-07T18:17:23.440Z</time>
      </trkpt>
      <trkpt lat="43.8612" lon="1.59426">
        <ele>147.296297</ele>
        <time>2022-05-07T18:17:34.062Z</time>
      </trkpt>
      <trkpt lat="43.86112" lon="1.59449">
        <ele>147.556213</ele>
        <time>2022-05-07T18:17:39.535Z</time>
      </trkpt>
      <trkpt lat="43.8612" lon="1.59473">
        <ele>147.863247</ele>
        <time>2022-05-07T18:17:45.021Z</time>
      </trkpt>
      <trkpt lat="43.86133" lon="1.59479">
        <ele>148.139952</ele>
        <time>2022-05-07T18:17:49.284Z</time>
      </trkpt>
      <trkpt lat="43.86143" lon="1.59477">
        <ele>148.328496</ele>
        <time>2022-05-07T18:17:51.977Z</time>
      </trkpt>
      <trkpt lat="43.86194" lon="1.59409">
        <ele>149.696756</ele>
        <time>2022-05-07T18:18:11.193Z</time>
      </trkpt>
      <trkpt lat="43.86242" lon="1.59388">
        <ele>150.66013</ele>
        <time>2022-05-07T18:18:26.871Z</time>
      </trkpt>
      <trkpt lat="43.86251" lon="1.59379">
        <ele>150.893651</ele>
        <time>2022-05-07T18:18:30.769Z</time>
      </trkpt>
      <trkpt lat="43.8626" lon="1.59362">
        <ele>151.174</ele>
        <time>2022-05-07T18:18:35.538Z</time>
      </trkpt>
      <trkpt lat="43.86275" lon="1.59306">
        <ele>152.999069</ele>
        <time>2022-05-07T18:18:50.416Z</time>
      </trkpt>
      <trkpt lat="43.86275" lon="1.59286">
        <ele>153.589259</ele>
        <time>2022-05-07T18:18:55.267Z</time>
      </trkpt>
      <trkpt lat="43.86261" lon="1.59246">
        <ele>154.948437</ele>
        <time>2022-05-07T18:19:07.519Z</time>
      </trkpt>
      <trkpt lat="43.86251" lon="1.59203">
        <ele>156.332268</ele>
        <time>2022-05-07T18:19:20.455Z</time>
      </trkpt>
      <trkpt lat="43.86215" lon="1.59174">
        <ele>158.088707</ele>
        <time>2022-05-07T18:19:36.276Z</time>
      </trkpt>
      <trkpt lat="43.8621" lon="1.59163">
        <ele>158.48722</ele>
        <time>2022-05-07T18:19:40.599Z</time>
      </trkpt>
      <trkpt lat="43.86213" lon="1.59128">
        <ele>160.264147</ele>
        <time>2022-05-07T18:19:51.967Z</time>
      </trkpt>
      <trkpt lat="43.86268" lon="1.59051">
        <ele>166.717013</ele>
        <time>2022-05-07T18:20:38.494Z</time>
      </trkpt>
      <trkpt lat="43.86285" lon="1.59035">
        <ele>168.376031</ele>
        <time>2022-05-07T18:20:49.737Z</time>
      </trkpt>
      <trkpt lat="43.86296" lon="1.59033">
        <ele>169.320606</ele>
        <time>2022-05-07T18:20:56.132Z</time>
      </trkpt>
      <trkpt lat="43.86324" lon="1.59041">
        <ele>171.659896</ele>
        <time>2022-05-07T18:21:13.839Z</time>
      </trkpt>
      <trkpt lat="43.86379" lon="1.5903">
        <ele>175.478314</ele>
        <time>2022-05-07T18:21:45.501Z</time>
      </trkpt>
      <trkpt lat="43.864" lon="1.59018">
        <ele>176.866372</ele>
        <time>2022-05-07T18:21:56.958Z</time>
      </trkpt>
      <trkpt lat="43.86424" lon="1.58984">
        <ele>178.909028</ele>
        <time>2022-05-07T18:22:13.753Z</time>
      </trkpt>
      <trkpt lat="43.86434" lon="1.58976">
        <ele>179.644729</ele>
        <time>2022-05-07T18:22:19.954Z</time>
      </trkpt>
      <trkpt lat="43.86439" lon="1.58978">
        <ele>179.904067</ele>
        <time>2022-05-07T18:22:22.281Z</time>
      </trkpt>
      <trkpt lat="43.86439" lon="1.58999">
        <ele>180.800716</ele>
        <time>2022-05-07T18:22:28.766Z</time>
      </trkpt>
      <trkpt lat="43.8643" lon="1.59027">
        <ele>182.139609</ele>
        <time>2022-05-07T18:22:38.801Z</time>
      </trkpt>
      <trkpt lat="43.86413" lon="1.59073">
        <ele>184.37796</ele>
        <time>2022-05-07T18:22:52.283Z</time>
      </trkpt>
      <trkpt lat="43.86407" lon="1.59113">
        <ele>184.501859</ele>
        <time>2022-05-07T18:23:00.090Z</time>
      </trkpt>
      <trkpt lat="43.86413" lon="1.5922">
        <ele>184.82701</ele>
        <time>2022-05-07T18:23:20.845Z</time>
      </trkpt>
      <trkpt lat="43.86407" lon="1.59113">
        <ele>184.932799</ele>
        <time>2022-05-07T18:23:35.636Z</time>
      </trkpt>
      <trkpt lat="43.86413" lon="1.59073">
        <ele>183.446122</ele>
        <time>2022-05-07T18:23:40.830Z</time>
      </trkpt>
      <trkpt lat="43.8643" lon="1.59027">
        <ele>181.5542</ele>
        <time>2022-05-07T18:23:46.608Z</time>
      </trkpt>
      <trkpt lat="43.86439" lon="1.58999">
        <ele>180.430678</ele>
        <time>2022-05-07T18:23:50.026Z</time>
      </trkpt>
      <trkpt lat="43.86439" lon="1.58978">
        <ele>179.678262</ele>
        <time>2022-05-07T18:23:52.202Z</time>
      </trkpt>
      <trkpt lat="43.86446" lon="1.5895">
        <ele>178.567904</ele>
        <time>2022-05-07T18:23:55.647Z</time>
      </trkpt>
      <trkpt lat="43.86452" lon="1.58946">
        <ele>178.229631</ele>
        <time>2022-05-07T18:23:56.715Z</time>
      </trkpt>
      <trkpt lat="43.86446" lon="1.5895">
        <ele>177.891358</ele>
        <time>2022-05-07T18:23:57.680Z</time>
      </trkpt>
      <trkpt lat="43.86439" lon="1.58978">
        <ele>176.781001</ele>
        <time>2022-05-07T18:24:01.017Z</time>
      </trkpt>
      <trkpt lat="43.86434" lon="1.58976">
        <ele>176.563379</ele>
        <time>2022-05-07T18:24:01.642Z</time>
      </trkpt>
      <trkpt lat="43.86431" lon="1.5894">
        <ele>174.56448</ele>
        <time>2022-05-07T18:24:05.409Z</time>
      </trkpt>
      <trkpt lat="43.86364" lon="1.58816">
        <ele>164.241121</ele>
        <time>2022-05-07T18:24:21.444Z</time>
      </trkpt>
      <trkpt lat="43.86354" lon="1.5878">
        <ele>161.670264</ele>
        <time>2022-05-07T18:24:25.346Z</time>
      </trkpt>
      <trkpt lat="43.86358" lon="1.58744">
        <ele>159.187906</ele>
        <time>2022-05-07T18:24:29.187Z</time>
      </trkpt>
      <trkpt lat="43.86367" lon="1.58711">
        <ele>156.713761</ele>
        <time>2022-05-07T18:24:32.850Z</time>
      </trkpt>
      <trkpt lat="43.8641" lon="1.58664">
        <ele>151.466282</ele>
        <time>2022-05-07T18:24:40.615Z</time>
      </trkpt>
      <trkpt lat="43.86445" lon="1.58562">
        <ele>143.589747</ele>
        <time>2022-05-07T18:24:52.274Z</time>
      </trkpt>
      <trkpt lat="43.86457" lon="1.58509">
        <ele>140.314979</ele>
        <time>2022-05-07T18:24:58.055Z</time>
      </trkpt>
      <trkpt lat="43.86459" lon="1.58389">
        <ele>134.173262</ele>
        <time>2022-05-07T18:25:10.688Z</time>
      </trkpt>
      <trkpt lat="43.86453" lon="1.58369">
        <ele>133.065867</ele>
        <time>2022-05-07T18:25:12.877Z</time>
      </trkpt>
      <trkpt lat="43.86462" lon="1.58351">
        <ele>131.89774</ele>
        <time>2022-05-07T18:25:15.537Z</time>
      </trkpt>
      <trkpt lat="43.86463" lon="1.5833">
        <ele>130.809727</ele>
        <time>2022-05-07T18:25:17.706Z</time>
      </trkpt>
      <trkpt lat="43.86467" lon="1.58265">
        <ele>128.808837</ele>
        <time>2022-05-07T18:25:25.138Z</time>
      </trkpt>
      <trkpt lat="43.86444" lon="1.58028">
        <ele>126.457014</ele>
        <time>2022-05-07T18:25:58.751Z</time>
      </trkpt>
      <trkpt lat="43.8645" lon="1.5804">
        <ele>126.497206</ele>
        <time>2022-05-07T18:26:01.331Z</time>
      </trkpt>
      <trkpt lat="43.86562" lon="1.58077">
        <ele>126.93639</ele>
        <time>2022-05-07T18:26:29.999Z</time>
      </trkpt>
      <trkpt lat="43.86604" lon="1.58106">
        <ele>127.122462</ele>
        <time>2022-05-07T18:26:41.750Z</time>
      </trkpt>
      <trkpt lat="43.86675" lon="1.58197">
        <ele>127.579342</ele>
        <time>2022-05-07T18:27:05.453Z</time>
      </trkpt>
      <trkpt lat="43.86699" lon="1.58229">
        <ele>127.736223</ele>
        <time>2022-05-07T18:27:13.218Z</time>
      </trkpt>
      <trkpt lat="43.86778" lon="1.58366">
        <ele>128.441327</ele>
        <time>2022-05-07T18:27:43.017Z</time>
      </trkpt>
      <trkpt lat="43.86792" lon="1.58375">
        <ele>128.534815</ele>
        <time>2022-05-07T18:27:46.723Z</time>
      </trkpt>
      <trkpt lat="43.86836" lon="1.58371">
        <ele>128.79629</ele>
        <time>2022-05-07T18:27:57.404Z</time>
      </trkpt>
      <trkpt lat="43.86905" lon="1.58413">
        <ele>129.653684</ele>
        <time>2022-05-07T18:28:17.437Z</time>
      </trkpt>
      <trkpt lat="43.86962" lon="1.58502">
        <ele>131.017465</ele>
        <time>2022-05-07T18:28:42.673Z</time>
      </trkpt>
      <trkpt lat="43.87075" lon="1.58637">
        <ele>133.431434</ele>
        <time>2022-05-07T18:29:26.692Z</time>
      </trkpt>
      <trkpt lat="43.87134" lon="1.58726">
        <ele>134.856389</ele>
        <time>2022-05-07T18:29:51.276Z</time>
      </trkpt>
      <trkpt lat="43.87148" lon="1.58739">
        <ele>135.132509</ele>
        <time>2022-05-07T18:29:55.869Z</time>
      </trkpt>
      <trkpt lat="43.87176" lon="1.58745">
        <ele>135.602409</ele>
        <time>2022-05-07T18:30:03.714Z</time>
      </trkpt>
      <trkpt lat="43.87254" lon="1.58715">
        <ele>136.934081</ele>
        <time>2022-05-07T18:30:25.342Z</time>
      </trkpt>
      <trkpt lat="43.8728" lon="1.58725">
        <ele>137.380785</ele>
        <time>2022-05-07T18:30:33.527Z</time>
      </trkpt>
      <trkpt lat="43.873" lon="1.58762">
        <ele>138.25046</ele>
        <time>2022-05-07T18:30:44.153Z</time>
      </trkpt>
      <trkpt lat="43.87302" lon="1.58781">
        <ele>138.970464</ele>
        <time>2022-05-07T18:30:48.691Z</time>
      </trkpt>
      <trkpt lat="43.87292" lon="1.58845">
        <ele>141.38422</ele>
        <time>2022-05-07T18:31:05.930Z</time>
      </trkpt>
      <trkpt lat="43.87294" lon="1.58894">
        <ele>143.172727</ele>
        <time>2022-05-07T18:31:21.072Z</time>
      </trkpt>
      <trkpt lat="43.87303" lon="1.58926">
        <ele>144.444806</ele>
        <time>2022-05-07T18:31:33.397Z</time>
      </trkpt>
      <trkpt lat="43.87318" lon="1.58947">
        <ele>145.52097</ele>
        <time>2022-05-07T18:31:44.159Z</time>
      </trkpt>
      <trkpt lat="43.87339" lon="1.58958">
        <ele>146.713869</ele>
        <time>2022-05-07T18:31:55.869Z</time>
      </trkpt>
      <trkpt lat="43.87476" lon="1.58973">
        <ele>156.341958</ele>
        <time>2022-05-07T18:33:07.756Z</time>
      </trkpt>
      <trkpt lat="43.87497" lon="1.58979">
        <ele>157.858546</ele>
        <time>2022-05-07T18:33:18.661Z</time>
      </trkpt>
      <trkpt lat="43.87512" lon="1.58991">
        <ele>159.111473</ele>
        <time>2022-05-07T18:33:28.002Z</time>
      </trkpt>
      <trkpt lat="43.87521" lon="1.59016">
        <ele>160.35806</ele>
        <time>2022-05-07T18:33:37.817Z</time>
      </trkpt>
      <trkpt lat="43.87539" lon="1.5918">
        <ele>166.655444</ele>
        <time>2022-05-07T18:34:25.983Z</time>
      </trkpt>
      <trkpt lat="43.87582" lon="1.59296">
        <ele>172.568594</ele>
        <time>2022-05-07T18:35:07.548Z</time>
      </trkpt>
      <trkpt lat="43.87596" lon="1.59315">
        <ele>174.010097</ele>
        <time>2022-05-07T18:35:17.259Z</time>
      </trkpt>
      <trkpt lat="43.87609" lon="1.5932">
        <ele>175.056713</ele>
        <time>2022-05-07T18:35:24.352Z</time>
      </trkpt>
      <trkpt lat="43.87829" lon="1.59174">
        <ele>193.673381</ele>
        <time>2022-05-07T18:37:41.855Z</time>
      </trkpt>
      <trkpt lat="43.87875" lon="1.59162">
        <ele>197.028962</ele>
        <time>2022-05-07T18:38:04.216Z</time>
      </trkpt>
      <trkpt lat="43.87978" lon="1.5917">
        <ele>201.377469</ele>
        <time>2022-05-07T18:38:46.448Z</time>
      </trkpt>
      <trkpt lat="43.88015" lon="1.59153">
        <ele>203.043314</ele>
        <time>2022-05-07T18:38:59.593Z</time>
      </trkpt>
      <trkpt lat="43.88045" lon="1.59147">
        <ele>204.276633</ele>
        <time>2022-05-07T18:39:09.988Z</time>
      </trkpt>
      <trkpt lat="43.88217" lon="1.592">
        <ele>207.680475</ele>
        <time>2022-05-07T18:40:03.324Z</time>
      </trkpt>
      <trkpt lat="43.88228" lon="1.59211">
        <ele>207.761677</ele>
        <time>2022-05-07T18:40:06.604Z</time>
      </trkpt>
      <trkpt lat="43.88239" lon="1.59223">
        <ele>207.800165</ele>
        <time>2022-05-07T18:40:09.640Z</time>
      </trkpt>
      <trkpt lat="43.88299" lon="1.59395">
        <ele>208.189709</ele>
        <time>2022-05-07T18:40:41.099Z</time>
      </trkpt>
      <trkpt lat="43.88344" lon="1.59466">
        <ele>208.549597</ele>
        <time>2022-05-07T18:40:55.111Z</time>
      </trkpt>
      <trkpt lat="43.88387" lon="1.5958">
        <ele>209.107049</ele>
        <time>2022-05-07T18:41:17.844Z</time>
      </trkpt>
      <trkpt lat="43.88395" lon="1.59613">
        <ele>209.261261</ele>
        <time>2022-05-07T18:41:25.033Z</time>
      </trkpt>
      <trkpt lat="43.88423" lon="1.59734">
        <ele>211.279549</ele>
        <time>2022-05-07T18:41:53.477Z</time>
      </trkpt>
      <trkpt lat="43.88442" lon="1.59854">
        <ele>213.421595</ele>
        <time>2022-05-07T18:42:23.769Z</time>
      </trkpt>
      <trkpt lat="43.88458" lon="1.59972">
        <ele>214.597559</ele>
        <time>2022-05-07T18:42:50.547Z</time>
      </trkpt>
      <trkpt lat="43.88465" lon="1.60022">
        <ele>215.038901</ele>
        <time>2022-05-07T18:43:00.370Z</time>
      </trkpt>
      <trkpt lat="43.88496" lon="1.60114">
        <ele>215.834015</ele>
        <time>2022-05-07T18:43:17.475Z</time>
      </trkpt>
      <trkpt lat="43.88512" lon="1.60144">
        <ele>215.737796</ele>
        <time>2022-05-07T18:43:22.802Z</time>
      </trkpt>
      <trkpt lat="43.88519" lon="1.60173">
        <ele>215.655755</ele>
        <time>2022-05-07T18:43:27.058Z</time>
      </trkpt>
      <trkpt lat="43.88519" lon="1.60232">
        <ele>215.500836</ele>
        <time>2022-05-07T18:43:35.410Z</time>
      </trkpt>
      <trkpt lat="43.88474" lon="1.60407">
        <ele>215.333047</ele>
        <time>2022-05-07T18:44:04.449Z</time>
      </trkpt>
      <trkpt lat="43.88392" lon="1.606">
        <ele>216.041612</ele>
        <time>2022-05-07T18:44:42.745Z</time>
      </trkpt>
      <trkpt lat="43.88271" lon="1.60842">
        <ele>218.500604</ele>
        <time>2022-05-07T18:45:41.519Z</time>
      </trkpt>
      <trkpt lat="43.88254" lon="1.609">
        <ele>219.052719</ele>
        <time>2022-05-07T18:45:54.085Z</time>
      </trkpt>
      <trkpt lat="43.88248" lon="1.60938">
        <ele>219.392102</ele>
        <time>2022-05-07T18:46:01.661Z</time>
      </trkpt>
      <trkpt lat="43.88273" lon="1.61004">
        <ele>219.929345</ele>
        <time>2022-05-07T18:46:15.816Z</time>
      </trkpt>
      <trkpt lat="43.88298" lon="1.61025">
        <ele>220.010843</ele>
        <time>2022-05-07T18:46:22.923Z</time>
      </trkpt>
      <trkpt lat="43.88366" lon="1.6106">
        <ele>220.21667</ele>
        <time>2022-05-07T18:46:40.201Z</time>
      </trkpt>
      <trkpt lat="43.88503" lon="1.61102">
        <ele>220.389049</ele>
        <time>2022-05-07T18:47:10.015Z</time>
      </trkpt>
      <trkpt lat="43.88548" lon="1.61124">
        <ele>220.380181</ele>
        <time>2022-05-07T18:47:20.813Z</time>
      </trkpt>
      <trkpt lat="43.88626" lon="1.61192">
        <ele>220.35481</ele>
        <time>2022-05-07T18:47:42.154Z</time>
      </trkpt>
      <trkpt lat="43.88687" lon="1.61245">
        <ele>220.323992</ele>
        <time>2022-05-07T18:47:58.256Z</time>
      </trkpt>
      <trkpt lat="43.88722" lon="1.61311">
        <ele>220.298669</ele>
        <time>2022-05-07T18:48:10.726Z</time>
      </trkpt>
      <trkpt lat="43.88795" lon="1.61501">
        <ele>220.193236</ele>
        <time>2022-05-07T18:48:44.004Z</time>
      </trkpt>
      <trkpt lat="43.88902" lon="1.61706">
        <ele>220.830027</ele>
        <time>2022-05-07T18:49:27.210Z</time>
      </trkpt>
      <trkpt lat="43.88923" lon="1.61732">
        <ele>220.960388</ele>
        <time>2022-05-07T18:49:34.620Z</time>
      </trkpt>
      <trkpt lat="43.88951" lon="1.6178">
        <ele>221.267254</ele>
        <time>2022-05-07T18:49:45.843Z</time>
      </trkpt>
      <trkpt lat="43.88963" lon="1.61827">
        <ele>221.536983</ele>
        <time>2022-05-07T18:49:55.150Z</time>
      </trkpt>
      <trkpt lat="43.88961" lon="1.61856">
        <ele>221.696437</ele>
        <time>2022-05-07T18:50:00.809Z</time>
      </trkpt>
      <trkpt lat="43.88966" lon="1.61905">
        <ele>221.961865</ele>
        <time>2022-05-07T18:50:09.633Z</time>
      </trkpt>
      <trkpt lat="43.89005" lon="1.62063">
        <ele>222.77323</ele>
        <time>2022-05-07T18:50:39.533Z</time>
      </trkpt>
      <trkpt lat="43.89039" lon="1.62165">
        <ele>223.278446</ele>
        <time>2022-05-07T18:50:59.592Z</time>
      </trkpt>
      <trkpt lat="43.89088" lon="1.62295">
        <ele>223.729949</ele>
        <time>2022-05-07T18:51:25.249Z</time>
      </trkpt>
      <trkpt lat="43.89085" lon="1.62367">
        <ele>223.915167</ele>
        <time>2022-05-07T18:51:37.838Z</time>
      </trkpt>
      <trkpt lat="43.89065" lon="1.62442">
        <ele>224.077363</ele>
        <time>2022-05-07T18:51:50.978Z</time>
      </trkpt>
      <trkpt lat="43.8902" lon="1.6253">
        <ele>223.858622</ele>
        <time>2022-05-07T18:52:07.304Z</time>
      </trkpt>
      <trkpt lat="43.88994" lon="1.62697">
        <ele>223.771983</ele>
        <time>2022-05-07T18:52:32.622Z</time>
      </trkpt>
      <trkpt lat="43.88983" lon="1.6283">
        <ele>224.430566</ele>
        <time>2022-05-07T18:52:56.409Z</time>
      </trkpt>
      <trkpt lat="43.88986" lon="1.6288">
        <ele>224.682218</ele>
        <time>2022-05-07T18:53:06.635Z</time>
      </trkpt>
      <trkpt lat="43.89015" lon="1.63052">
        <ele>226.349837</ele>
        <time>2022-05-07T18:53:43.588Z</time>
      </trkpt>
      <trkpt lat="43.89046" lon="1.63173">
        <ele>227.552913</ele>
        <time>2022-05-07T18:54:08.373Z</time>
      </trkpt>
      <trkpt lat="43.8908" lon="1.63237">
        <ele>228.01396</ele>
        <time>2022-05-07T18:54:22.730Z</time>
      </trkpt>
      <trkpt lat="43.8912" lon="1.63338">
        <ele>228.684389</ele>
        <time>2022-05-07T18:54:43.319Z</time>
      </trkpt>
      <trkpt lat="43.89139" lon="1.63465">
        <ele>229.911835</ele>
        <time>2022-05-07T18:55:07.787Z</time>
      </trkpt>
      <trkpt lat="43.8927" lon="1.64049">
        <ele>235.997867</ele>
        <time>2022-05-07T18:57:13.723Z</time>
      </trkpt>
      <trkpt lat="43.89294" lon="1.64072">
        <ele>236.281497</ele>
        <time>2022-05-07T18:57:20.662Z</time>
      </trkpt>
      <trkpt lat="43.89327" lon="1.64075">
        <ele>235.991712</ele>
        <time>2022-05-07T18:57:27.912Z</time>
      </trkpt>
      <trkpt lat="43.8936" lon="1.64115">
        <ele>235.618941</ele>
        <time>2022-05-07T18:57:36.668Z</time>
      </trkpt>
      <trkpt lat="43.89379" lon="1.64175">
        <ele>235.212146</ele>
        <time>2022-05-07T18:57:45.549Z</time>
      </trkpt>
      <trkpt lat="43.89344" lon="1.64186">
        <ele>234.902983</ele>
        <time>2022-05-07T18:57:51.952Z</time>
      </trkpt>
      <trkpt lat="43.89299" lon="1.64239">
        <ele>234.28424</ele>
        <time>2022-05-07T18:58:02.438Z</time>
      </trkpt>
      <trkpt lat="43.89276" lon="1.64298">
        <ele>233.743937</ele>
        <time>2022-05-07T18:58:11.208Z</time>
      </trkpt>
      <trkpt lat="43.89274" lon="1.64312">
        <ele>233.627821</ele>
        <time>2022-05-07T18:58:13.027Z</time>
      </trkpt>
      <trkpt lat="43.89264" lon="1.64376">
        <ele>233.098919</ele>
        <time>2022-05-07T18:58:21.974Z</time>
      </trkpt>
      <trkpt lat="43.89283" lon="1.6462">
        <ele>233.601372</ele>
        <time>2022-05-07T18:59:03.682Z</time>
      </trkpt>
      <trkpt lat="43.89269" lon="1.64741">
        <ele>234.657386</ele>
        <time>2022-05-07T18:59:29.122Z</time>
      </trkpt>
      <trkpt lat="43.89213" lon="1.64983">
        <ele>236.6969</ele>
        <time>2022-05-07T19:00:22.405Z</time>
      </trkpt>
      <trkpt lat="43.89158" lon="1.65102">
        <ele>236.732852</ele>
        <time>2022-05-07T19:00:43.679Z</time>
      </trkpt>
      <trkpt lat="43.8909" lon="1.65162">
        <ele>235.718301</ele>
        <time>2022-05-07T19:00:57.999Z</time>
      </trkpt>
      <trkpt lat="43.89066" lon="1.6522">
        <ele>234.868172</ele>
        <time>2022-05-07T19:01:06.489Z</time>
      </trkpt>
      <trkpt lat="43.89055" lon="1.65295">
        <ele>233.91671</ele>
        <time>2022-05-07T19:01:16.140Z</time>
      </trkpt>
      <trkpt lat="43.89004" lon="1.65399">
        <ele>233.130717</ele>
        <time>2022-05-07T19:01:33.295Z</time>
      </trkpt>
      <trkpt lat="43.88963" lon="1.65527">
        <ele>232.46271</ele>
        <time>2022-05-07T19:01:54.793Z</time>
      </trkpt>
      <trkpt lat="43.88939" lon="1.65581">
        <ele>232.520475</ele>
        <time>2022-05-07T19:02:04.749Z</time>
      </trkpt>
      <trkpt lat="43.88891" lon="1.65659">
        <ele>232.694958</ele>
        <time>2022-05-07T19:02:22.111Z</time>
      </trkpt>
      <trkpt lat="43.88866" lon="1.65712">
        <ele>232.802317</ele>
        <time>2022-05-07T19:02:33.051Z</time>
      </trkpt>
      <trkpt lat="43.88822" lon="1.65935">
        <ele>233.44611</ele>
        <time>2022-05-07T19:03:13.224Z</time>
      </trkpt>
      <trkpt lat="43.88784" lon="1.66048">
        <ele>233.659673</ele>
        <time>2022-05-07T19:03:33.685Z</time>
      </trkpt>
      <trkpt lat="43.88777" lon="1.66067">
        <ele>233.680333</ele>
        <time>2022-05-07T19:03:36.950Z</time>
      </trkpt>
      <trkpt lat="43.88779" lon="1.66235">
        <ele>233.796993</ele>
        <time>2022-05-07T19:04:05.182Z</time>
      </trkpt>
      <trkpt lat="43.88776" lon="1.66287">
        <ele>233.718048</ele>
        <time>2022-05-07T19:04:13.385Z</time>
      </trkpt>
      <trkpt lat="43.88773" lon="1.66319">
        <ele>233.669247</ele>
        <time>2022-05-07T19:04:18.716Z</time>
      </trkpt>
      <trkpt lat="43.88734" lon="1.66462">
        <ele>233.392095</ele>
        <time>2022-05-07T19:04:42.315Z</time>
      </trkpt>
      <trkpt lat="43.88676" lon="1.66566">
        <ele>232.27627</ele>
        <time>2022-05-07T19:04:59.700Z</time>
      </trkpt>
      <trkpt lat="43.88655" lon="1.66657">
        <ele>231.466386</ele>
        <time>2022-05-07T19:05:12.191Z</time>
      </trkpt>
      <trkpt lat="43.88658" lon="1.66833">
        <ele>231.726094</ele>
        <time>2022-05-07T19:05:39.062Z</time>
      </trkpt>
      <trkpt lat="43.88654" lon="1.66857">
        <ele>231.786438</ele>
        <time>2022-05-07T19:05:44.064Z</time>
      </trkpt>
      <trkpt lat="43.88624" lon="1.66944">
        <ele>232.145531</ele>
        <time>2022-05-07T19:06:04.637Z</time>
      </trkpt>
      <trkpt lat="43.88604" lon="1.67019">
        <ele>232.639334</ele>
        <time>2022-05-07T19:06:21.306Z</time>
      </trkpt>
      <trkpt lat="43.8862" lon="1.67043">
        <ele>232.841277</ele>
        <time>2022-05-07T19:06:28.226Z</time>
      </trkpt>
      <trkpt lat="43.88651" lon="1.67216">
        <ele>232.356649</ele>
        <time>2022-05-07T19:06:57.519Z</time>
      </trkpt>
      <trkpt lat="43.88719" lon="1.67412">
        <ele>228.637449</ele>
        <time>2022-05-07T19:07:24.394Z</time>
      </trkpt>
      <trkpt lat="43.88736" lon="1.67522">
        <ele>226.214569</ele>
        <time>2022-05-07T19:07:38.089Z</time>
      </trkpt>
      <trkpt lat="43.8877" lon="1.67622">
        <ele>223.949074</ele>
        <time>2022-05-07T19:07:52.168Z</time>
      </trkpt>
      <trkpt lat="43.88785" lon="1.67647">
        <ele>223.565833</ele>
        <time>2022-05-07T19:07:56.344Z</time>
      </trkpt>
      <trkpt lat="43.88831" lon="1.67687">
        <ele>222.65895</ele>
        <time>2022-05-07T19:08:06.549Z</time>
      </trkpt>
      <trkpt lat="43.88928" lon="1.67819">
        <ele>221.054872</ele>
        <time>2022-05-07T19:08:33.514Z</time>
      </trkpt>
      <trkpt lat="43.88956" lon="1.67849">
        <ele>220.992288</ele>
        <time>2022-05-07T19:08:40.714Z</time>
      </trkpt>
      <trkpt lat="43.89" lon="1.67878">
        <ele>220.904153</ele>
        <time>2022-05-07T19:08:51.463Z</time>
      </trkpt>
      <trkpt lat="43.89086" lon="1.67909">
        <ele>221.89282</ele>
        <time>2022-05-07T19:09:15.613Z</time>
      </trkpt>
      <trkpt lat="43.89116" lon="1.67933">
        <ele>222.91471</ele>
        <time>2022-05-07T19:09:26.560Z</time>
      </trkpt>
      <trkpt lat="43.89193" lon="1.68151">
        <ele>228.617059</ele>
        <time>2022-05-07T19:10:35.284Z</time>
      </trkpt>
      <trkpt lat="43.89201" lon="1.68278">
        <ele>232.017906</ele>
        <time>2022-05-07T19:11:13.163Z</time>
      </trkpt>
      <trkpt lat="43.89197" lon="1.68326">
        <ele>232.708434</ele>
        <time>2022-05-07T19:11:24.910Z</time>
      </trkpt>
      <trkpt lat="43.8928" lon="1.68405">
        <ele>231.779708</ele>
        <time>2022-05-07T19:11:48.786Z</time>
      </trkpt>
      <trkpt lat="43.89434" lon="1.68463">
        <ele>227.270947</ele>
        <time>2022-05-07T19:12:14.837Z</time>
      </trkpt>
      <trkpt lat="43.89456" lon="1.68468">
        <ele>226.366606</ele>
        <time>2022-05-07T19:12:18.307Z</time>
      </trkpt>
      <trkpt lat="43.8949" lon="1.68465">
        <ele>224.964413</ele>
        <time>2022-05-07T19:12:23.747Z</time>
      </trkpt>
      <trkpt lat="43.89578" lon="1.68436">
        <ele>221.76922</ele>
        <time>2022-05-07T19:12:39.024Z</time>
      </trkpt>
      <trkpt lat="43.89611" lon="1.68442">
        <ele>220.716499</ele>
        <time>2022-05-07T19:12:44.693Z</time>
      </trkpt>
      <trkpt lat="43.89624" lon="1.68456">
        <ele>220.183612</ele>
        <time>2022-05-07T19:12:47.563Z</time>
      </trkpt>
      <trkpt lat="43.89686" lon="1.6855">
        <ele>217.011842</ele>
        <time>2022-05-07T19:13:03.750Z</time>
      </trkpt>
      <trkpt lat="43.89705" lon="1.68559">
        <ele>216.170537</ele>
        <time>2022-05-07T19:13:07.045Z</time>
      </trkpt>
      <trkpt lat="43.89726" lon="1.6855">
        <ele>215.232329</ele>
        <time>2022-05-07T19:13:10.762Z</time>
      </trkpt>
      <trkpt lat="43.89737" lon="1.68536">
        <ele>214.610489</ele>
        <time>2022-05-07T19:13:13.188Z</time>
      </trkpt>
      <trkpt lat="43.89764" lon="1.68463">
        <ele>212.078122</ele>
        <time>2022-05-07T19:13:22.936Z</time>
      </trkpt>
      <trkpt lat="43.89786" lon="1.68453">
        <ele>211.076556</ele>
        <time>2022-05-07T19:13:26.594Z</time>
      </trkpt>
      <trkpt lat="43.89874" lon="1.68461">
        <ele>204.881727</ele>
        <time>2022-05-07T19:13:39.968Z</time>
      </trkpt>
      <trkpt lat="43.90046" lon="1.68451">
        <ele>191.382861</ele>
        <time>2022-05-07T19:14:05.017Z</time>
      </trkpt>
      <trkpt lat="43.90087" lon="1.68462">
        <ele>188.035123</ele>
        <time>2022-05-07T19:14:11.025Z</time>
      </trkpt>
      <trkpt lat="43.90127" lon="1.6848">
        <ele>184.70323</ele>
        <time>2022-05-07T19:14:17.012Z</time>
      </trkpt>
      <trkpt lat="43.90191" lon="1.68473">
        <ele>181.75693</ele>
        <time>2022-05-07T19:14:26.993Z</time>
      </trkpt>
      <trkpt lat="43.90257" lon="1.68499">
        <ele>181.324587</ele>
        <time>2022-05-07T19:14:39.184Z</time>
      </trkpt>
      <trkpt lat="43.90304" lon="1.68523">
        <ele>181.007231</ele>
        <time>2022-05-07T19:14:52.863Z</time>
      </trkpt>
      <trkpt lat="43.90316" lon="1.68536">
        <ele>180.906943</ele>
        <time>2022-05-07T19:14:58.106Z</time>
      </trkpt>
      <trkpt lat="43.90346" lon="1.68611">
        <ele>184.660513</ele>
        <time>2022-05-07T19:15:29.222Z</time>
      </trkpt>
      <trkpt lat="43.90408" lon="1.68715">
        <ele>192.803451</ele>
        <time>2022-05-07T19:16:31.551Z</time>
      </trkpt>
      <trkpt lat="43.9043" lon="1.68737">
        <ele>195.031672</ele>
        <time>2022-05-07T19:16:47.133Z</time>
      </trkpt>
      <trkpt lat="43.90449" lon="1.68745">
        <ele>196.552284</ele>
        <time>2022-05-07T19:17:00.453Z</time>
      </trkpt>
      <trkpt lat="43.90357" lon="1.68938">
        <ele>207.972896</ele>
        <time>2022-05-07T19:18:25.298Z</time>
      </trkpt>
      <trkpt lat="43.90336" lon="1.68978">
        <ele>209.271113</ele>
        <time>2022-05-07T19:18:37.965Z</time>
      </trkpt>
      <trkpt lat="43.90337" lon="1.68987">
        <ele>209.488426</ele>
        <time>2022-05-07T19:18:39.849Z</time>
      </trkpt>
      <trkpt lat="43.90392" lon="1.6901">
        <ele>211.453131</ele>
        <time>2022-05-07T19:19:00.186Z</time>
      </trkpt>
      <trkpt lat="43.90366" lon="1.6909">
        <ele>213.61438</ele>
        <time>2022-05-07T19:19:21.770Z</time>
      </trkpt>
      <trkpt lat="43.90336" lon="1.6919">
        <ele>215.367254</ele>
        <time>2022-05-07T19:19:48.357Z</time>
      </trkpt>
      <trkpt lat="43.90313" lon="1.69268">
        <ele>216.517073</ele>
        <time>2022-05-07T19:20:04.505Z</time>
      </trkpt>
      <trkpt lat="43.90298" lon="1.69293">
        <ele>216.963665</ele>
        <time>2022-05-07T19:20:11.057Z</time>
      </trkpt>
      <trkpt lat="43.90256" lon="1.69354">
        <ele>218.109376</ele>
        <time>2022-05-07T19:20:27.969Z</time>
      </trkpt>
      <trkpt lat="43.90231" lon="1.69373">
        <ele>218.635809</ele>
        <time>2022-05-07T19:20:36.623Z</time>
      </trkpt>
      <trkpt lat="43.90198" lon="1.69384">
        <ele>219.287484</ele>
        <time>2022-05-07T19:20:47.698Z</time>
      </trkpt>
      <trkpt lat="43.90185" lon="1.69391">
        <ele>219.547934</ele>
        <time>2022-05-07T19:20:52.201Z</time>
      </trkpt>
      <trkpt lat="43.90157" lon="1.69413">
        <ele>220.155215</ele>
        <time>2022-05-07T19:21:01.793Z</time>
      </trkpt>
      <trkpt lat="43.90065" lon="1.69466">
        <ele>221.355688</ele>
        <time>2022-05-07T19:21:30.923Z</time>
      </trkpt>
      <trkpt lat="43.89987" lon="1.69546">
        <ele>221.913348</ele>
        <time>2022-05-07T19:21:54.014Z</time>
      </trkpt>
      <trkpt lat="43.8998" lon="1.69553">
        <ele>221.96562</ele>
        <time>2022-05-07T19:21:56.248Z</time>
      </trkpt>
      <trkpt lat="43.89931" lon="1.6962">
        <ele>221.518549</ele>
        <time>2022-05-07T19:22:09.708Z</time>
      </trkpt>
      <trkpt lat="43.89913" lon="1.69637">
        <ele>221.249351</ele>
        <time>2022-05-07T19:22:13.595Z</time>
      </trkpt>
      <trkpt lat="43.89879" lon="1.69649">
        <ele>220.821262</ele>
        <time>2022-05-07T19:22:19.741Z</time>
      </trkpt>
      <trkpt lat="43.89843" lon="1.69681">
        <ele>220.286961</ele>
        <time>2022-05-07T19:22:27.463Z</time>
      </trkpt>
      <trkpt lat="43.89775" lon="1.6976">
        <ele>220.307076</ele>
        <time>2022-05-07T19:22:44.621Z</time>
      </trkpt>
      <trkpt lat="43.89755" lon="1.69794">
        <ele>220.55891</ele>
        <time>2022-05-07T19:22:51.341Z</time>
      </trkpt>
      <trkpt lat="43.89681" lon="1.69969">
        <ele>223.024133</ele>
        <time>2022-05-07T19:23:36.908Z</time>
      </trkpt>
      <trkpt lat="43.8966" lon="1.70005">
        <ele>224.106114</ele>
        <time>2022-05-07T19:23:49.488Z</time>
      </trkpt>
      <trkpt lat="43.8961" lon="1.70057">
        <ele>226.127833</ele>
        <time>2022-05-07T19:24:13.736Z</time>
      </trkpt>
      <trkpt lat="43.89587" lon="1.70093">
        <ele>227.191593</ele>
        <time>2022-05-07T19:24:26.234Z</time>
      </trkpt>
      <trkpt lat="43.89551" lon="1.7012">
        <ele>227.634543</ele>
        <time>2022-05-07T19:24:40.257Z</time>
      </trkpt>
      <trkpt lat="43.89523" lon="1.70124">
        <ele>227.945681</ele>
        <time>2022-05-07T19:24:48.989Z</time>
      </trkpt>
      <trkpt lat="43.89461" lon="1.70116">
        <ele>228.619723</ele>
        <time>2022-05-07T19:25:05.350Z</time>
      </trkpt>
      <trkpt lat="43.89452" lon="1.70103">
        <ele>228.763476</ele>
        <time>2022-05-07T19:25:07.553Z</time>
      </trkpt>
      <trkpt lat="43.89439" lon="1.7006">
        <ele>229.060285</ele>
        <time>2022-05-07T19:25:14.088Z</time>
      </trkpt>
      <trkpt lat="43.89426" lon="1.70044">
        <ele>228.473272</ele>
        <time>2022-05-07T19:25:17.668Z</time>
      </trkpt>
      <trkpt lat="43.89415" lon="1.70042">
        <ele>228.121317</ele>
        <time>2022-05-07T19:25:19.611Z</time>
      </trkpt>
      <trkpt lat="43.89385" lon="1.70039">
        <ele>227.114058</ele>
        <time>2022-05-07T19:25:25.005Z</time>
      </trkpt>
      <trkpt lat="43.89332" lon="1.70046">
        <ele>225.314138</ele>
        <time>2022-05-07T19:25:33.482Z</time>
      </trkpt>
      <trkpt lat="43.8931" lon="1.70055">
        <ele>224.570423</ele>
        <time>2022-05-07T19:25:36.933Z</time>
      </trkpt>
      <trkpt lat="43.89248" lon="1.70104">
        <ele>221.326796</ele>
        <time>2022-05-07T19:25:47.766Z</time>
      </trkpt>
      <trkpt lat="43.89234" lon="1.70105">
        <ele>220.390842</ele>
        <time>2022-05-07T19:25:49.944Z</time>
      </trkpt>
      <trkpt lat="43.892" lon="1.70088">
        <ele>218.096538</ele>
        <time>2022-05-07T19:25:55.160Z</time>
      </trkpt>
      <trkpt lat="43.89104" lon="1.70306">
        <ele>205.895759</ele>
        <time>2022-05-07T19:26:22.639Z</time>
      </trkpt>
      <trkpt lat="43.89072" lon="1.70338">
        <ele>203.221022</ele>
        <time>2022-05-07T19:26:28.463Z</time>
      </trkpt>
      <trkpt lat="43.88964" lon="1.70397">
        <ele>196.42421</ele>
        <time>2022-05-07T19:26:46.229Z</time>
      </trkpt>
      <trkpt lat="43.88945" lon="1.70414">
        <ele>195.295801</ele>
        <time>2022-05-07T19:26:49.859Z</time>
      </trkpt>
      <trkpt lat="43.88902" lon="1.70482">
        <ele>192.108423</ele>
        <time>2022-05-07T19:27:00.359Z</time>
      </trkpt>
      <trkpt lat="43.88824" lon="1.70624">
        <ele>187.496874</ele>
        <time>2022-05-07T19:27:22.134Z</time>
      </trkpt>
      <trkpt lat="43.88808" lon="1.70642">
        <ele>186.866921</ele>
        <time>2022-05-07T19:27:25.614Z</time>
      </trkpt>
      <trkpt lat="43.88786" lon="1.70661">
        <ele>186.058276</ele>
        <time>2022-05-07T19:27:30.158Z</time>
      </trkpt>
      <trkpt lat="43.88724" lon="1.70698">
        <ele>184.309922</ele>
        <time>2022-05-07T19:27:41.983Z</time>
      </trkpt>
      <trkpt lat="43.88622" lon="1.70745">
        <ele>182.270291</ele>
        <time>2022-05-07T19:28:02.036Z</time>
      </trkpt>
      <trkpt lat="43.8857" lon="1.70739">
        <ele>181.312262</ele>
        <time>2022-05-07T19:28:12.259Z</time>
      </trkpt>
      <trkpt lat="43.88492" lon="1.7074">
        <ele>180.230802</ele>
        <time>2022-05-07T19:28:27.479Z</time>
      </trkpt>
      <trkpt lat="43.88436" lon="1.70717">
        <ele>179.425599</ele>
        <time>2022-05-07T19:28:38.852Z</time>
      </trkpt>
      <trkpt lat="43.88338" lon="1.70711">
        <ele>178.057043</ele>
        <time>2022-05-07T19:28:57.927Z</time>
      </trkpt>
      <trkpt lat="43.88314" lon="1.70715">
        <ele>177.711164</ele>
        <time>2022-05-07T19:29:02.684Z</time>
      </trkpt>
      <trkpt lat="43.88248" lon="1.70746">
        <ele>176.74225</ele>
        <time>2022-05-07T19:29:16.101Z</time>
      </trkpt>
      <trkpt lat="43.88197" lon="1.70734">
        <ele>175.972712</ele>
        <time>2022-05-07T19:29:25.971Z</time>
      </trkpt>
      <trkpt lat="43.88144" lon="1.70739">
        <ele>175.164449</ele>
        <time>2022-05-07T19:29:36.027Z</time>
      </trkpt>
      <trkpt lat="43.88101" lon="1.70757">
        <ele>174.472634</ele>
        <time>2022-05-07T19:29:44.734Z</time>
      </trkpt>
      <trkpt lat="43.88075" lon="1.70776">
        <ele>174.031105</ele>
        <time>2022-05-07T19:29:50.266Z</time>
      </trkpt>
      <trkpt lat="43.88027" lon="1.70809">
        <ele>173.269311</ele>
        <time>2022-05-07T19:30:00.736Z</time>
      </trkpt>
      <trkpt lat="43.87985" lon="1.70857">
        <ele>172.557416</ele>
        <time>2022-05-07T19:30:11.250Z</time>
      </trkpt>
      <trkpt lat="43.87874" lon="1.70899">
        <ele>171.110358</ele>
        <time>2022-05-07T19:30:33.812Z</time>
      </trkpt>
      <trkpt lat="43.87856" lon="1.70896">
        <ele>170.904713</ele>
        <time>2022-05-07T19:30:37.560Z</time>
      </trkpt>
      <trkpt lat="43.87804" lon="1.70906">
        <ele>170.334185</ele>
        <time>2022-05-07T19:30:47.914Z</time>
      </trkpt>
      <trkpt lat="43.87773" lon="1.70927">
        <ele>169.946026</ele>
        <time>2022-05-07T19:30:54.935Z</time>
      </trkpt>
      <trkpt lat="43.87666" lon="1.71021">
        <ele>168.763031</ele>
        <time>2022-05-07T19:31:20.352Z</time>
      </trkpt>
      <trkpt lat="43.87607" lon="1.71089">
        <ele>168.144027</ele>
        <time>2022-05-07T19:31:36.500Z</time>
      </trkpt>
      <trkpt lat="43.87597" lon="1.71091">
        <ele>168.054713</ele>
        <time>2022-05-07T19:31:38.841Z</time>
      </trkpt>
      <trkpt lat="43.87547" lon="1.71077">
        <ele>167.532073</ele>
        <time>2022-05-07T19:31:49.445Z</time>
      </trkpt>
      <trkpt lat="43.87471" lon="1.71118">
        <ele>166.55415</ele>
        <time>2022-05-07T19:32:06.080Z</time>
      </trkpt>
      <trkpt lat="43.87353" lon="1.71141">
        <ele>164.478555</ele>
        <time>2022-05-07T19:32:28.557Z</time>
      </trkpt>
      <trkpt lat="43.8716" lon="1.711">
        <ele>159.879346</ele>
        <time>2022-05-07T19:33:02.641Z</time>
      </trkpt>
      <trkpt lat="43.87123" lon="1.71085">
        <ele>159.06616</ele>
        <time>2022-05-07T19:33:09.587Z</time>
      </trkpt>
      <trkpt lat="43.86989" lon="1.71007">
        <ele>157.028286</ele>
        <time>2022-05-07T19:33:37.923Z</time>
      </trkpt>
      <trkpt lat="43.86954" lon="1.70973">
        <ele>156.759105</ele>
        <time>2022-05-07T19:33:47.276Z</time>
      </trkpt>
      <trkpt lat="43.86891" lon="1.70896">
        <ele>156.275374</ele>
        <time>2022-05-07T19:34:06.234Z</time>
      </trkpt>
      <trkpt lat="43.86864" lon="1.70883">
        <ele>156.188691</ele>
        <time>2022-05-07T19:34:12.880Z</time>
      </trkpt>
      <trkpt lat="43.86829" lon="1.70879">
        <ele>156.081907</ele>
        <time>2022-05-07T19:34:21.020Z</time>
      </trkpt>
      <trkpt lat="43.86706" lon="1.70895">
        <ele>155.524043</ele>
        <time>2022-05-07T19:34:47.883Z</time>
      </trkpt>
      <trkpt lat="43.86669" lon="1.70894">
        <ele>155.108608</ele>
        <time>2022-05-07T19:34:55.497Z</time>
      </trkpt>
      <trkpt lat="43.86643" lon="1.70886">
        <ele>154.814166</ele>
        <time>2022-05-07T19:35:00.782Z</time>
      </trkpt>
      <trkpt lat="43.86594" lon="1.70852">
        <ele>154.208572</ele>
        <time>2022-05-07T19:35:11.483Z</time>
      </trkpt>
      <trkpt lat="43.86532" lon="1.7082">
        <ele>153.525647</ele>
        <time>2022-05-07T19:35:24.092Z</time>
      </trkpt>
      <trkpt lat="43.86494" lon="1.70812">
        <ele>153.189133</ele>
        <time>2022-05-07T19:35:31.141Z</time>
      </trkpt>
      <trkpt lat="43.8646" lon="1.70812">
        <ele>152.879204</ele>
        <time>2022-05-07T19:35:37.926Z</time>
      </trkpt>
      <trkpt lat="43.86423" lon="1.7082">
        <ele>152.545644</ele>
        <time>2022-05-07T19:35:45.646Z</time>
      </trkpt>
      <trkpt lat="43.86404" lon="1.70832">
        <ele>152.358565</ele>
        <time>2022-05-07T19:35:50.010Z</time>
      </trkpt>
      <trkpt lat="43.86393" lon="1.70852">
        <ele>152.191939</ele>
        <time>2022-05-07T19:35:54.089Z</time>
      </trkpt>
      <trkpt lat="43.86368" lon="1.70898">
        <ele>153.49292</ele>
        <time>2022-05-07T19:36:05.024Z</time>
      </trkpt>
      <trkpt lat="43.86346" lon="1.70961">
        <ele>155.223599</ele>
        <time>2022-05-07T19:36:21.744Z</time>
      </trkpt>
      <trkpt lat="43.86326" lon="1.71002">
        <ele>156.459757</ele>
        <time>2022-05-07T19:36:35.677Z</time>
      </trkpt>
      <trkpt lat="43.86305" lon="1.71025">
        <ele>157.385704</ele>
        <time>2022-05-07T19:36:47.424Z</time>
      </trkpt>
      <trkpt lat="43.86279" lon="1.71039">
        <ele>158.350529</ele>
        <time>2022-05-07T19:37:01.112Z</time>
      </trkpt>
      <trkpt lat="43.86104" lon="1.71085">
        <ele>170.845906</ele>
        <time>2022-05-07T19:38:36.360Z</time>
      </trkpt>
      <trkpt lat="43.85955" lon="1.7114">
        <ele>178.913197</ele>
        <time>2022-05-07T19:39:43.557Z</time>
      </trkpt>
      <trkpt lat="43.85842" lon="1.71231">
        <ele>185.313419</ele>
        <time>2022-05-07T19:40:36.026Z</time>
      </trkpt>
      <trkpt lat="43.85712" lon="1.71445">
        <ele>195.22206</ele>
        <time>2022-05-07T19:42:06.598Z</time>
      </trkpt>
      <trkpt lat="43.85618" lon="1.71576">
        <ele>200.515079</ele>
        <time>2022-05-07T19:42:59.175Z</time>
      </trkpt>
      <trkpt lat="43.85554" lon="1.71701">
        <ele>203.848369</ele>
        <time>2022-05-07T19:43:37.932Z</time>
      </trkpt>
      <trkpt lat="43.8548" lon="1.71819">
        <ele>204.301169</ele>
        <time>2022-05-07T19:44:08.820Z</time>
      </trkpt>
      <trkpt lat="43.85459" lon="1.71832">
        <ele>204.393315</ele>
        <time>2022-05-07T19:44:14.243Z</time>
      </trkpt>
      <trkpt lat="43.85418" lon="1.7184">
        <ele>204.237963</ele>
        <time>2022-05-07T19:44:22.313Z</time>
      </trkpt>
      <trkpt lat="43.85401" lon="1.71854">
        <ele>203.284384</ele>
        <time>2022-05-07T19:44:25.715Z</time>
      </trkpt>
      <trkpt lat="43.8537" lon="1.71948">
        <ele>199.719168</ele>
        <time>2022-05-07T19:44:37.832Z</time>
      </trkpt>
      <trkpt lat="43.85354" lon="1.71983">
        <ele>198.288789</ele>
        <time>2022-05-07T19:44:42.353Z</time>
      </trkpt>
      <trkpt lat="43.85336" lon="1.72006">
        <ele>197.13036</ele>
        <time>2022-05-07T19:44:45.980Z</time>
      </trkpt>
      <trkpt lat="43.8531" lon="1.72024">
        <ele>195.669546</ele>
        <time>2022-05-07T19:44:50.349Z</time>
      </trkpt>
      <trkpt lat="43.85182" lon="1.72087">
        <ele>186.490852</ele>
        <time>2022-05-07T19:45:10.811Z</time>
      </trkpt>
      <trkpt lat="43.85033" lon="1.7211">
        <ele>177.540839</ele>
        <time>2022-05-07T19:45:33.729Z</time>
      </trkpt>
      <trkpt lat="43.84965" lon="1.72133">
        <ele>173.524361</ele>
        <time>2022-05-07T19:45:44.873Z</time>
      </trkpt>
      <trkpt lat="43.84906" lon="1.72161">
        <ele>170.754812</ele>
        <time>2022-05-07T19:45:54.821Z</time>
      </trkpt>
      <trkpt lat="43.84881" lon="1.7218">
        <ele>169.497708</ele>
        <time>2022-05-07T19:45:59.383Z</time>
      </trkpt>
      <trkpt lat="43.84783" lon="1.72274">
        <ele>164.609369</ele>
        <time>2022-05-07T19:46:18.909Z</time>
      </trkpt>
      <trkpt lat="43.84755" lon="1.72289">
        <ele>163.650795</ele>
        <time>2022-05-07T19:46:23.935Z</time>
      </trkpt>
      <trkpt lat="43.8471" lon="1.72301">
        <ele>162.209388</ele>
        <time>2022-05-07T19:46:31.713Z</time>
      </trkpt>
      <trkpt lat="43.84669" lon="1.72348">
        <ele>160.524287</ele>
        <time>2022-05-07T19:46:41.094Z</time>
      </trkpt>
      <trkpt lat="43.84595" lon="1.72447">
        <ele>157.759658</ele>
        <time>2022-05-07T19:46:59.782Z</time>
      </trkpt>
      <trkpt lat="43.84566" lon="1.7247">
        <ele>156.927678</ele>
        <time>2022-05-07T19:47:05.726Z</time>
      </trkpt>
      <trkpt lat="43.84522" lon="1.72488">
        <ele>155.764656</ele>
        <time>2022-05-07T19:47:13.854Z</time>
      </trkpt>
      <trkpt lat="43.84493" lon="1.725">
        <ele>154.818742</ele>
        <time>2022-05-07T19:47:19.178Z</time>
      </trkpt>
      <trkpt lat="43.84443" lon="1.72557">
        <ele>152.312452</ele>
        <time>2022-05-07T19:47:29.960Z</time>
      </trkpt>
      <trkpt lat="43.84403" lon="1.72592">
        <ele>150.472722</ele>
        <time>2022-05-07T19:47:37.635Z</time>
      </trkpt>
      <trkpt lat="43.84278" lon="1.72678">
        <ele>145.073643</ele>
        <time>2022-05-07T19:48:00.308Z</time>
      </trkpt>
      <trkpt lat="43.8422" lon="1.72777">
        <ele>141.524878</ele>
        <time>2022-05-07T19:48:15.516Z</time>
      </trkpt>
      <trkpt lat="43.84176" lon="1.72881">
        <ele>139.577118</ele>
        <time>2022-05-07T19:48:31.119Z</time>
      </trkpt>
      <trkpt lat="43.8408" lon="1.73073">
        <ele>136.462157</ele>
        <time>2022-05-07T19:49:03.147Z</time>
      </trkpt>
      <trkpt lat="43.8402" lon="1.73046">
        <ele>135.542439</ele>
        <time>2022-05-07T19:49:14.898Z</time>
      </trkpt>
      <trkpt lat="43.83964" lon="1.73032">
        <ele>134.71813</ele>
        <time>2022-05-07T19:49:25.444Z</time>
      </trkpt>
      <trkpt lat="43.83822" lon="1.7302">
        <ele>132.835262</ele>
        <time>2022-05-07T19:49:51.898Z</time>
      </trkpt>
      <trkpt lat="43.83728" lon="1.73002">
        <ele>131.96164</ele>
        <time>2022-05-07T19:50:09.702Z</time>
      </trkpt>
      <trkpt lat="43.83549" lon="1.73016">
        <ele>130.95599</ele>
        <time>2022-05-07T19:50:46.845Z</time>
      </trkpt>
      <trkpt lat="43.83479" lon="1.7301">
        <ele>130.801294</ele>
        <time>2022-05-07T19:51:01.983Z</time>
      </trkpt>
      <trkpt lat="43.83267" lon="1.72932">
        <ele>130.705215</ele>
        <time>2022-05-07T19:51:50.758Z</time>
      </trkpt>
      <trkpt lat="43.83225" lon="1.72899">
        <ele>130.753779</ele>
        <time>2022-05-07T19:52:01.707Z</time>
      </trkpt>
      <trkpt lat="43.83119" lon="1.72882">
        <ele>130.866999</ele>
        <time>2022-05-07T19:52:25.696Z</time>
      </trkpt>
      <trkpt lat="43.83016" lon="1.72838">
        <ele>131.047215</ele>
        <time>2022-05-07T19:52:50.768Z</time>
      </trkpt>
      <trkpt lat="43.83009" lon="1.72835">
        <ele>131.06211</ele>
        <time>2022-05-07T19:52:52.630Z</time>
      </trkpt>
      <trkpt lat="43.82918" lon="1.72812">
        <ele>131.235335</ele>
        <time>2022-05-07T19:53:13.687Z</time>
      </trkpt>
      <trkpt lat="43.8289" lon="1.72797">
        <ele>131.126095</ele>
        <time>2022-05-07T19:53:20.393Z</time>
      </trkpt>
      <trkpt lat="43.82835" lon="1.72747">
        <ele>130.885921</ele>
        <time>2022-05-07T19:53:34.521Z</time>
      </trkpt>
      <trkpt lat="43.82828" lon="1.72741">
        <ele>130.855692</ele>
        <time>2022-05-07T19:53:36.254Z</time>
      </trkpt>
      <trkpt lat="43.82793" lon="1.72726">
        <ele>130.721037</ele>
        <time>2022-05-07T19:53:43.634Z</time>
      </trkpt>
      <trkpt lat="43.82757" lon="1.72715">
        <ele>130.585671</ele>
        <time>2022-05-07T19:53:50.856Z</time>
      </trkpt>
      <trkpt lat="43.82678" lon="1.72705">
        <ele>130.42008</ele>
        <time>2022-05-07T19:54:06.918Z</time>
      </trkpt>
      <trkpt lat="43.82628" lon="1.727">
        <ele>130.31723</ele>
        <time>2022-05-07T19:54:17.864Z</time>
      </trkpt>
      <trkpt lat="43.82585" lon="1.7269">
        <ele>130.227258</ele>
        <time>2022-05-07T19:54:28.015Z</time>
      </trkpt>
      <trkpt lat="43.82578" lon="1.72689">
        <ele>130.212834</ele>
        <time>2022-05-07T19:54:29.712Z</time>
      </trkpt>
      <trkpt lat="43.82558" lon="1.72683">
        <ele>130.295209</ele>
        <time>2022-05-07T19:54:34.522Z</time>
      </trkpt>
      <trkpt lat="43.8249" lon="1.72653">
        <ele>130.635355</ele>
        <time>2022-05-07T19:54:51.898Z</time>
      </trkpt>
      <trkpt lat="43.82416" lon="1.72629">
        <ele>130.998189</ele>
        <time>2022-05-07T19:55:10.722Z</time>
      </trkpt>
      <trkpt lat="43.82391" lon="1.72622">
        <ele>131.100367</ele>
        <time>2022-05-07T19:55:16.597Z</time>
      </trkpt>
      <trkpt lat="43.82376" lon="1.72618">
        <ele>131.147278</ele>
        <time>2022-05-07T19:55:20.171Z</time>
      </trkpt>
      <trkpt lat="43.82357" lon="1.72613">
        <ele>131.206694</ele>
        <time>2022-05-07T19:55:24.790Z</time>
      </trkpt>
      <trkpt lat="43.82336" lon="1.72611">
        <ele>131.26824</ele>
        <time>2022-05-07T19:55:29.485Z</time>
      </trkpt>
      <trkpt lat="43.82333" lon="1.72601">
        <ele>131.291994</ele>
        <time>2022-05-07T19:55:31.416Z</time>
      </trkpt>
      <trkpt lat="43.82263" lon="1.72527">
        <ele>131.554584</ele>
        <time>2022-05-07T19:55:52.032Z</time>
      </trkpt>
      <trkpt lat="43.82254" lon="1.72517">
        <ele>131.587879</ele>
        <time>2022-05-07T19:55:54.495Z</time>
      </trkpt>
      <trkpt lat="43.82219" lon="1.72479">
        <ele>131.487771</ele>
        <time>2022-05-07T19:56:04.887Z</time>
      </trkpt>
      <trkpt lat="43.8219" lon="1.72447">
        <ele>131.373549</ele>
        <time>2022-05-07T19:56:13.424Z</time>
      </trkpt>
      <trkpt lat="43.82129" lon="1.72386">
        <ele>131.142418</ele>
        <time>2022-05-07T19:56:28.804Z</time>
      </trkpt>
      <trkpt lat="43.82122" lon="1.72378">
        <ele>131.114335</ele>
        <time>2022-05-07T19:56:30.548Z</time>
      </trkpt>
      <trkpt lat="43.82116" lon="1.7238">
        <ele>131.094339</ele>
        <time>2022-05-07T19:56:31.833Z</time>
      </trkpt>
      <trkpt lat="43.82114" lon="1.72392">
        <ele>131.068736</ele>
        <time>2022-05-07T19:56:33.439Z</time>
      </trkpt>
      <trkpt lat="43.8212" lon="1.72398">
        <ele>130.994625</ele>
        <time>2022-05-07T19:56:35.136Z</time>
      </trkpt>
      <trkpt lat="43.82118" lon="1.72406">
        <ele>130.878174</ele>
        <time>2022-05-07T19:56:36.256Z</time>
      </trkpt>
      <trkpt lat="43.82116" lon="1.72412">
        <ele>130.774379</ele>
        <time>2022-05-07T19:56:37.224Z</time>
      </trkpt>
      <trkpt lat="43.82112" lon="1.72423">
        <ele>130.601876</ele>
        <time>2022-05-07T19:56:38.850Z</time>
      </trkpt>
      <trkpt lat="43.8207" lon="1.72391">
        <ele>129.642601</ele>
        <time>2022-05-07T19:56:47.903Z</time>
      </trkpt>
      <trkpt lat="43.82029" lon="1.7234">
        <ele>128.521826</ele>
        <time>2022-05-07T19:56:57.987Z</time>
      </trkpt>
      <trkpt lat="43.82012" lon="1.72316">
        <ele>128.044597</ele>
        <time>2022-05-07T19:57:02.173Z</time>
      </trkpt>
      <trkpt lat="43.81974" lon="1.7227">
        <ele>126.464355</ele>
        <time>2022-05-07T19:57:10.322Z</time>
      </trkpt>
      <trkpt lat="43.81947" lon="1.72244">
        <ele>124.927469</ele>
        <time>2022-05-07T19:57:15.056Z</time>
      </trkpt>
      <trkpt lat="43.81936" lon="1.72238">
        <ele>124.352711</ele>
        <time>2022-05-07T19:57:16.818Z</time>
      </trkpt>
      <trkpt lat="43.8191" lon="1.72228">
        <ele>123.068196</ele>
        <time>2022-05-07T19:57:20.690Z</time>
      </trkpt>
      <trkpt lat="43.81909" lon="1.72249">
        <ele>122.350074</ele>
        <time>2022-05-07T19:57:22.930Z</time>
      </trkpt>
      <trkpt lat="43.81908" lon="1.72258">
        <ele>122.023734</ele>
        <time>2022-05-07T19:57:23.971Z</time>
      </trkpt>
      <trkpt lat="43.81907" lon="1.72265">
        <ele>121.78662</ele>
        <time>2022-05-07T19:57:24.737Z</time>
      </trkpt>
      <trkpt lat="43.81906" lon="1.72274">
        <ele>121.447082</ele>
        <time>2022-05-07T19:57:25.818Z</time>
      </trkpt>
      <trkpt lat="43.81901" lon="1.72303">
        <ele>120.425388</ele>
        <time>2022-05-07T19:57:29.044Z</time>
      </trkpt>
      <trkpt lat="43.81896" lon="1.72323">
        <ele>119.721252</ele>
        <time>2022-05-07T19:57:31.306Z</time>
      </trkpt>
      <trkpt lat="43.81886" lon="1.72356">
        <ele>118.813403</ele>
        <time>2022-05-07T19:57:35.371Z</time>
      </trkpt>
      <trkpt lat="43.81872" lon="1.72352">
        <ele>118.764777</ele>
        <time>2022-05-07T19:57:37.534Z</time>
      </trkpt>
      <trkpt lat="43.81865" lon="1.72363">
        <ele>118.726869</ele>
        <time>2022-05-07T19:57:39.319Z</time>
      </trkpt>
      <trkpt lat="43.81851" lon="1.72358">
        <ele>118.676391</ele>
        <time>2022-05-07T19:57:41.553Z</time>
      </trkpt>
      <trkpt lat="43.8185" lon="1.72363">
        <ele>118.663361</ele>
        <time>2022-05-07T19:57:42.175Z</time>
      </trkpt>
      <trkpt lat="43.81847" lon="1.72374">
        <ele>118.631327</ele>
        <time>2022-05-07T19:57:43.613Z</time>
      </trkpt>
      <trkpt lat="43.81837" lon="1.72365">
        <ele>118.586466</ele>
        <time>2022-05-07T19:57:47.088Z</time>
      </trkpt>
      <trkpt lat="43.81839" lon="1.7236">
        <ele>118.571894</ele>
        <time>2022-05-07T19:57:47.859Z</time>
      </trkpt>
      <trkpt lat="43.81846" lon="1.72341">
        <ele>118.516419</ele>
        <time>2022-05-07T19:57:50.741Z</time>
      </trkpt>
      <trkpt lat="43.81822" lon="1.72319">
        <ele>118.415977</ele>
        <time>2022-05-07T19:57:57.342Z</time>
      </trkpt>
      <trkpt lat="43.81823" lon="1.72271">
        <ele>118.288438</ele>
        <time>2022-05-07T19:58:07.732Z</time>
      </trkpt>
      <trkpt lat="43.81825" lon="1.72241">
        <ele>118.209937</ele>
        <time>2022-05-07T19:58:16.431Z</time>
      </trkpt>
      <trkpt lat="43.81835" lon="1.72229">
        <ele>118.260245</ele>
        <time>2022-05-07T19:58:20.995Z</time>
      </trkpt>
      <trkpt lat="43.81852" lon="1.72227">
        <ele>118.409015</ele>
        <time>2022-05-07T19:58:26.230Z</time>
      </trkpt>
      <trkpt lat="43.81853" lon="1.72228">
        <ele>118.416236</ele>
        <time>2022-05-07T19:58:27.264Z</time>
      </trkpt>
      <trkpt lat="43.81882" lon="1.72242">
        <ele>118.673368</ele>
        <time>2022-05-07T19:58:37.992Z</time>
      </trkpt>
      <trkpt lat="43.81883" lon="1.72242">
        <ele>118.686472</ele>
        <time>2022-05-07T19:58:38.471Z</time>
      </trkpt>
      <trkpt lat="43.81885" lon="1.72238">
        <ele>118.717398</ele>
        <time>2022-05-07T19:58:40.114Z</time>
      </trkpt>
      <trkpt lat="43.81909" lon="1.72249">
        <ele>118.934696</ele>
        <time>2022-05-07T19:58:47.901Z</time>
      </trkpt>
      <trkpt lat="43.8191" lon="1.72228">
        <ele>119.06253</ele>
        <time>2022-05-07T19:58:53.473Z</time>
      </trkpt>
      <trkpt lat="43.81911" lon="1.7222">
        <ele>119.113344</ele>
        <time>2022-05-07T19:58:54.892Z</time>
      </trkpt>
      <trkpt lat="43.81912" lon="1.7221">
        <ele>119.171554</ele>
        <time>2022-05-07T19:58:56.600Z</time>
      </trkpt>
      <trkpt lat="43.81915" lon="1.72187">
        <ele>119.31708</ele>
        <time>2022-05-07T19:59:00.479Z</time>
      </trkpt>
      <trkpt lat="43.81917" lon="1.72164">
        <ele>119.454602</ele>
        <time>2022-05-07T19:59:04.045Z</time>
      </trkpt>
      <trkpt lat="43.81884" lon="1.72143">
        <ele>119.497299</ele>
        <time>2022-05-07T19:59:10.464Z</time>
      </trkpt>
      <trkpt lat="43.81817" lon="1.72153">
        <ele>116.491833</ele>
        <time>2022-05-07T19:59:21.135Z</time>
      </trkpt>
      <trkpt lat="43.81804" lon="1.72168">
        <ele>115.708568</ele>
        <time>2022-05-07T19:59:23.909Z</time>
      </trkpt>
      <trkpt lat="43.81788" lon="1.722">
        <ele>114.477404</ele>
        <time>2022-05-07T19:59:28.146Z</time>
      </trkpt>
      <trkpt lat="43.81779" lon="1.72216">
        <ele>113.850058</ele>
        <time>2022-05-07T19:59:30.333Z</time>
      </trkpt>
      <trkpt lat="43.81749" lon="1.72275">
        <ele>111.611923</ele>
        <time>2022-05-07T19:59:38.882Z</time>
      </trkpt>
      <trkpt lat="43.81751" lon="1.72295">
        <ele>111.292096</ele>
        <time>2022-05-07T19:59:41.337Z</time>
      </trkpt>
      <trkpt lat="43.81762" lon="1.72313">
        <ele>110.920176</ele>
        <time>2022-05-07T19:59:44.044Z</time>
      </trkpt>
      <trkpt lat="43.81862" lon="1.72398">
        <ele>108.319534</ele>
        <time>2022-05-07T20:00:05.289Z</time>
      </trkpt>
      <trkpt lat="43.81954" lon="1.72466">
        <ele>107.739033</ele>
        <time>2022-05-07T20:00:31.360Z</time>
      </trkpt>
      <trkpt lat="43.81963" lon="1.7248">
        <ele>107.739487</ele>
        <time>2022-05-07T20:00:34.771Z</time>
      </trkpt>
      <trkpt lat="43.81968" lon="1.72489">
        <ele>107.739787</ele>
        <time>2022-05-07T20:00:36.956Z</time>
      </trkpt>
      <trkpt lat="43.81974" lon="1.72501">
        <ele>107.740121</ele>
        <time>2022-05-07T20:00:39.459Z</time>
      </trkpt>
      <trkpt lat="43.8198" lon="1.72513">
        <ele>107.74048</ele>
        <time>2022-05-07T20:00:42.471Z</time>
      </trkpt>
      <trkpt lat="43.81992" lon="1.72567">
        <ele>107.741843</ele>
        <time>2022-05-07T20:00:57.399Z</time>
      </trkpt>
      <trkpt lat="43.81984" lon="1.72573">
        <ele>107.742139</ele>
        <time>2022-05-07T20:01:01.165Z</time>
      </trkpt>
      <trkpt lat="43.81992" lon="1.72567">
        <ele>107.742435</ele>
        <time>2022-05-07T20:01:04.077Z</time>
      </trkpt>
      <trkpt lat="43.8198" lon="1.72513">
        <ele>107.768488</ele>
        <time>2022-05-07T20:01:19.216Z</time>
      </trkpt>
      <trkpt lat="43.81974" lon="1.72501">
        <ele>107.775436</ele>
        <time>2022-05-07T20:01:22.501Z</time>
      </trkpt>
      <trkpt lat="43.81968" lon="1.72489">
        <ele>107.781909</ele>
        <time>2022-05-07T20:01:25.945Z</time>
      </trkpt>
      <trkpt lat="43.81963" lon="1.7248">
        <ele>107.78771</ele>
        <time>2022-05-07T20:01:27.761Z</time>
      </trkpt>
      <trkpt lat="43.81954" lon="1.72466">
        <ele>107.796492</ele>
        <time>2022-05-07T20:01:30.648Z</time>
      </trkpt>
      <trkpt lat="43.81862" lon="1.72398">
        <ele>108.05514</ele>
        <time>2022-05-07T20:01:53.213Z</time>
      </trkpt>
      <trkpt lat="43.81762" lon="1.72313">
        <ele>111.070543</ele>
        <time>2022-05-07T20:02:31.102Z</time>
      </trkpt>
      <trkpt lat="43.81751" lon="1.72295">
        <ele>111.501779</ele>
        <time>2022-05-07T20:02:38.010Z</time>
      </trkpt>
      <trkpt lat="43.81749" lon="1.72275">
        <ele>111.872614</ele>
        <time>2022-05-07T20:02:43.268Z</time>
      </trkpt>
      <trkpt lat="43.81779" lon="1.72216">
        <ele>113.898172</ele>
        <time>2022-05-07T20:03:04.765Z</time>
      </trkpt>
      <trkpt lat="43.81788" lon="1.722">
        <ele>114.584774</ele>
        <time>2022-05-07T20:03:11.339Z</time>
      </trkpt>
      <trkpt lat="43.81804" lon="1.72168">
        <ele>115.932229</ele>
        <time>2022-05-07T20:03:23.854Z</time>
      </trkpt>
      <trkpt lat="43.81817" lon="1.72153">
        <ele>116.789477</ele>
        <time>2022-05-07T20:03:31.126Z</time>
      </trkpt>
      <trkpt lat="43.81884" lon="1.72143">
        <ele>120.078827</ele>
        <time>2022-05-07T20:04:01.425Z</time>
      </trkpt>
      <trkpt lat="43.81917" lon="1.72164">
        <ele>121.625399</ele>
        <time>2022-05-07T20:04:17.175Z</time>
      </trkpt>
      <trkpt lat="43.8192" lon="1.72154">
        <ele>121.874703</ele>
        <time>2022-05-07T20:04:20.097Z</time>
      </trkpt>
      <trkpt lat="43.81943" lon="1.72151">
        <ele>122.592972</ele>
        <time>2022-05-07T20:04:28.928Z</time>
      </trkpt>
      <trkpt lat="43.81958" lon="1.72117">
        <ele>123.507343</ele>
        <time>2022-05-07T20:04:38.740Z</time>
      </trkpt>
      <trkpt lat="43.81956" lon="1.7211">
        <ele>123.666307</ele>
        <time>2022-05-07T20:04:40.607Z</time>
      </trkpt>
      <trkpt lat="43.81954" lon="1.72093">
        <ele>124.062336</ele>
        <time>2022-05-07T20:04:44.925Z</time>
      </trkpt>
      <trkpt lat="43.81944" lon="1.72026">
        <ele>125.613935</ele>
        <time>2022-05-07T20:05:02.393Z</time>
      </trkpt>
      <trkpt lat="43.8194" lon="1.71868">
        <ele>128.521979</ele>
        <time>2022-05-07T20:05:37.520Z</time>
      </trkpt>
      <trkpt lat="43.81942" lon="1.71807">
        <ele>129.489974</ele>
        <time>2022-05-07T20:05:50.303Z</time>
      </trkpt>
      <trkpt lat="43.81942" lon="1.71797">
        <ele>129.650419</ele>
        <time>2022-05-07T20:05:52.399Z</time>
      </trkpt>
      <trkpt lat="43.81929" lon="1.71711">
        <ele>131.291243</ele>
        <time>2022-05-07T20:06:12.942Z</time>
      </trkpt>
      <trkpt lat="43.81935" lon="1.71645">
        <ele>133.804679</ele>
        <time>2022-05-07T20:06:32.960Z</time>
      </trkpt>
      <trkpt lat="43.81957" lon="1.71537">
        <ele>138.005474</ele>
        <time>2022-05-07T20:07:08.146Z</time>
      </trkpt>
      <trkpt lat="43.81956" lon="1.71512">
        <ele>138.974346</ele>
        <time>2022-05-07T20:07:16.643Z</time>
      </trkpt>
      <trkpt lat="43.81938" lon="1.71449">
        <ele>142.135476</ele>
        <time>2022-05-07T20:07:42.325Z</time>
      </trkpt>
      <trkpt lat="43.81884" lon="1.71385">
        <ele>147.743471</ele>
        <time>2022-05-07T20:08:24.920Z</time>
      </trkpt>
      <trkpt lat="43.81887" lon="1.71365">
        <ele>148.859072</ele>
        <time>2022-05-07T20:08:34.086Z</time>
      </trkpt>
      <trkpt lat="43.81901" lon="1.71338">
        <ele>150.821762</ele>
        <time>2022-05-07T20:08:47.618Z</time>
      </trkpt>
      <trkpt lat="43.81899" lon="1.71316">
        <ele>152.072851</ele>
        <time>2022-05-07T20:08:57.685Z</time>
      </trkpt>
      <trkpt lat="43.81905" lon="1.71223">
        <ele>155.911982</ele>
        <time>2022-05-07T20:09:29.297Z</time>
      </trkpt>
      <trkpt lat="43.819" lon="1.71042">
        <ele>161.13235</ele>
        <time>2022-05-07T20:10:20.339Z</time>
      </trkpt>
      <trkpt lat="43.81893" lon="1.70928">
        <ele>160.862781</ele>
        <time>2022-05-07T20:10:39.569Z</time>
      </trkpt>
      <trkpt lat="43.81918" lon="1.70836">
        <ele>160.12661</ele>
        <time>2022-05-07T20:10:52.830Z</time>
      </trkpt>
      <trkpt lat="43.81922" lon="1.70786">
        <ele>159.74612</ele>
        <time>2022-05-07T20:10:59.223Z</time>
      </trkpt>
      <trkpt lat="43.81921" lon="1.707">
        <ele>157.715073</ele>
        <time>2022-05-07T20:11:09.714Z</time>
      </trkpt>
      <trkpt lat="43.81926" lon="1.70565">
        <ele>154.456748</ele>
        <time>2022-05-07T20:11:25.916Z</time>
      </trkpt>
      <trkpt lat="43.81924" lon="1.70489">
        <ele>153.194463</ele>
        <time>2022-05-07T20:11:35.360Z</time>
      </trkpt>
      <trkpt lat="43.81924" lon="1.70451">
        <ele>152.741019</ele>
        <time>2022-05-07T20:11:40.338Z</time>
      </trkpt>
      <trkpt lat="43.8196" lon="1.7043">
        <ele>152.103927</ele>
        <time>2022-05-07T20:11:47.708Z</time>
      </trkpt>
      <trkpt lat="43.81996" lon="1.70418">
        <ele>151.502689</ele>
        <time>2022-05-07T20:11:55.047Z</time>
      </trkpt>
      <trkpt lat="43.82008" lon="1.70424">
        <ele>151.298963</ele>
        <time>2022-05-07T20:11:57.676Z</time>
      </trkpt>
      <trkpt lat="43.82074" lon="1.70421">
        <ele>151.057307</ele>
        <time>2022-05-07T20:12:12.934Z</time>
      </trkpt>
      <trkpt lat="43.82033" lon="1.70293">
        <ele>151.741537</ele>
        <time>2022-05-07T20:12:40.021Z</time>
      </trkpt>
      <trkpt lat="43.81994" lon="1.70173">
        <ele>151.927684</ele>
        <time>2022-05-07T20:13:03.884Z</time>
      </trkpt>
      <trkpt lat="43.81837" lon="1.69709">
        <ele>150.26133</ele>
        <time>2022-05-07T20:14:18.500Z</time>
      </trkpt>
      <trkpt lat="43.81803" lon="1.6965">
        <ele>150.052302</ele>
        <time>2022-05-07T20:14:29.391Z</time>
      </trkpt>
      <trkpt lat="43.81717" lon="1.69552">
        <ele>150.132689</ele>
        <time>2022-05-07T20:14:54.516Z</time>
      </trkpt>
      <trkpt lat="43.81691" lon="1.69514">
        <ele>150.388805</ele>
        <time>2022-05-07T20:15:04.027Z</time>
      </trkpt>
      <trkpt lat="43.81591" lon="1.69301">
        <ele>151.677153</ele>
        <time>2022-05-07T20:15:51.918Z</time>
      </trkpt>
      <trkpt lat="43.81577" lon="1.69263">
        <ele>151.903705</ele>
        <time>2022-05-07T20:15:59.609Z</time>
      </trkpt>
      <trkpt lat="43.81569" lon="1.6923">
        <ele>152.085547</ele>
        <time>2022-05-07T20:16:05.608Z</time>
      </trkpt>
      <trkpt lat="43.8157" lon="1.69216">
        <ele>152.160302</ele>
        <time>2022-05-07T20:16:08.192Z</time>
      </trkpt>
      <trkpt lat="43.8157" lon="1.69088">
        <ele>152.627798</ele>
        <time>2022-05-07T20:16:29.892Z</time>
      </trkpt>
      <trkpt lat="43.81565" lon="1.69055">
        <ele>152.733018</ele>
        <time>2022-05-07T20:16:35.569Z</time>
      </trkpt>
      <trkpt lat="43.81546" lon="1.69019">
        <ele>152.868001</ele>
        <time>2022-05-07T20:16:42.879Z</time>
      </trkpt>
      <trkpt lat="43.81447" lon="1.68903">
        <ele>153.998472</ele>
        <time>2022-05-07T20:17:15.375Z</time>
      </trkpt>
      <trkpt lat="43.81444" lon="1.68746">
        <ele>155.46987</ele>
        <time>2022-05-07T20:17:47.232Z</time>
      </trkpt>
      <trkpt lat="43.8145" lon="1.68705">
        <ele>156.197547</ele>
        <time>2022-05-07T20:17:56.182Z</time>
      </trkpt>
      <trkpt lat="43.81462" lon="1.68675">
        <ele>156.818109</ele>
        <time>2022-05-07T20:18:04.078Z</time>
      </trkpt>
      <trkpt lat="43.81531" lon="1.68585">
        <ele>159.12481</ele>
        <time>2022-05-07T20:18:35.557Z</time>
      </trkpt>
      <trkpt lat="43.81573" lon="1.68501">
        <ele>161.015551</ele>
        <time>2022-05-07T20:19:00.582Z</time>
      </trkpt>
      <trkpt lat="43.81577" lon="1.68476">
        <ele>161.50503</ele>
        <time>2022-05-07T20:19:06.566Z</time>
      </trkpt>
      <trkpt lat="43.81573" lon="1.68461">
        <ele>161.799844</ele>
        <time>2022-05-07T20:19:10.543Z</time>
      </trkpt>
      <trkpt lat="43.81553" lon="1.6845">
        <ele>162.366553</ele>
        <time>2022-05-07T20:19:17.324Z</time>
      </trkpt>
      <trkpt lat="43.81496" lon="1.68471">
        <ele>163.890139</ele>
        <time>2022-05-07T20:19:36.437Z</time>
      </trkpt>
      <trkpt lat="43.81483" lon="1.68467">
        <ele>164.241505</ele>
        <time>2022-05-07T20:19:40.770Z</time>
      </trkpt>
      <trkpt lat="43.81477" lon="1.68449">
        <ele>164.456504</ele>
        <time>2022-05-07T20:19:45.547Z</time>
      </trkpt>
      <trkpt lat="43.81468" lon="1.68357">
        <ele>165.087593</ele>
        <time>2022-05-07T20:20:05.838Z</time>
      </trkpt>
      <trkpt lat="43.81448" lon="1.68315">
        <ele>165.427118</ele>
        <time>2022-05-07T20:20:14.865Z</time>
      </trkpt>
      <trkpt lat="43.81429" lon="1.68303">
        <ele>165.631316</ele>
        <time>2022-05-07T20:20:20.040Z</time>
      </trkpt>
      <trkpt lat="43.814" lon="1.68305">
        <ele>165.902177</ele>
        <time>2022-05-07T20:20:26.092Z</time>
      </trkpt>
      <trkpt lat="43.81339" lon="1.68349">
        <ele>165.541142</ele>
        <time>2022-05-07T20:20:39.715Z</time>
      </trkpt>
      <trkpt lat="43.81285" lon="1.68367">
        <ele>164.981918</ele>
        <time>2022-05-07T20:20:50.262Z</time>
      </trkpt>
      <trkpt lat="43.81262" lon="1.68369">
        <ele>164.749377</ele>
        <time>2022-05-07T20:20:54.414Z</time>
      </trkpt>
      <trkpt lat="43.81212" lon="1.68358">
        <ele>164.261759</ele>
        <time>2022-05-07T20:21:03.844Z</time>
      </trkpt>
      <trkpt lat="43.81198" lon="1.68351">
        <ele>164.335891</ele>
        <time>2022-05-07T20:21:06.652Z</time>
      </trkpt>
      <trkpt lat="43.81185" lon="1.68337">
        <ele>164.419677</ele>
        <time>2022-05-07T20:21:09.904Z</time>
      </trkpt>
      <trkpt lat="43.81166" lon="1.68293">
        <ele>164.604371</ele>
        <time>2022-05-07T20:21:17.664Z</time>
      </trkpt>
      <trkpt lat="43.81169" lon="1.68251">
        <ele>164.756018</ele>
        <time>2022-05-07T20:21:24.994Z</time>
      </trkpt>
      <trkpt lat="43.81199" lon="1.68184">
        <ele>165.03972</ele>
        <time>2022-05-07T20:21:41.705Z</time>
      </trkpt>
      <trkpt lat="43.81219" lon="1.68085">
        <ele>165.713374</ele>
        <time>2022-05-07T20:22:03.057Z</time>
      </trkpt>
      <trkpt lat="43.81228" lon="1.6807">
        <ele>165.869887</ele>
        <time>2022-05-07T20:22:06.871Z</time>
      </trkpt>
      <trkpt lat="43.81249" lon="1.68056">
        <ele>166.125667</ele>
        <time>2022-05-07T20:22:13.803Z</time>
      </trkpt>
      <trkpt lat="43.81179" lon="1.68051">
        <ele>166.893528</ele>
        <time>2022-05-07T20:22:33.076Z</time>
      </trkpt>
      <trkpt lat="43.8104" lon="1.68081">
        <ele>166.963908</ele>
        <time>2022-05-07T20:23:04.810Z</time>
      </trkpt>
      <trkpt lat="43.80993" lon="1.68077">
        <ele>166.902875</ele>
        <time>2022-05-07T20:23:15.131Z</time>
      </trkpt>
      <trkpt lat="43.8094" lon="1.68062">
        <ele>166.543765</ele>
        <time>2022-05-07T20:23:27.171Z</time>
      </trkpt>
      <trkpt lat="43.80773" lon="1.67971">
        <ele>164.53844</ele>
        <time>2022-05-07T20:24:03.496Z</time>
      </trkpt>
      <trkpt lat="43.80657" lon="1.67886">
        <ele>161.792686</ele>
        <time>2022-05-07T20:24:27.084Z</time>
      </trkpt>
      <trkpt lat="43.80552" lon="1.67853">
        <ele>158.612347</ele>
        <time>2022-05-07T20:24:45.615Z</time>
      </trkpt>
      <trkpt lat="43.80188" lon="1.67573">
        <ele>145.538273</ele>
        <time>2022-05-07T20:25:57.078Z</time>
      </trkpt>
      <trkpt lat="43.80157" lon="1.67557">
        <ele>144.254512</ele>
        <time>2022-05-07T20:26:02.956Z</time>
      </trkpt>
      <trkpt lat="43.8013" lon="1.67529">
        <ele>142.489173</ele>
        <time>2022-05-07T20:26:08.456Z</time>
      </trkpt>
      <trkpt lat="43.80105" lon="1.67527">
        <ele>141.183813</ele>
        <time>2022-05-07T20:26:12.390Z</time>
      </trkpt>
      <trkpt lat="43.80064" lon="1.67547">
        <ele>138.912558</ele>
        <time>2022-05-07T20:26:19.118Z</time>
      </trkpt>
      <trkpt lat="43.80052" lon="1.67545">
        <ele>138.277234</ele>
        <time>2022-05-07T20:26:20.945Z</time>
      </trkpt>
      <trkpt lat="43.80033" lon="1.67528">
        <ele>137.094161</ele>
        <time>2022-05-07T20:26:24.490Z</time>
      </trkpt>
      <trkpt lat="43.80021" lon="1.67491">
        <ele>135.57326</ele>
        <time>2022-05-07T20:26:28.912Z</time>
      </trkpt>
      <trkpt lat="43.80006" lon="1.67374">
        <ele>130.248962</ele>
        <time>2022-05-07T20:26:41.946Z</time>
      </trkpt>
      <trkpt lat="43.80001" lon="1.67355">
        <ele>129.322591</ele>
        <time>2022-05-07T20:26:44.148Z</time>
      </trkpt>
      <trkpt lat="43.79994" lon="1.67345">
        <ele>128.717307</ele>
        <time>2022-05-07T20:26:45.589Z</time>
      </trkpt>
      <trkpt lat="43.79965" lon="1.67319">
        <ele>126.533147</ele>
        <time>2022-05-07T20:26:50.775Z</time>
      </trkpt>
      <trkpt lat="43.79941" lon="1.67305">
        <ele>124.879071</ele>
        <time>2022-05-07T20:26:54.874Z</time>
      </trkpt>
      <trkpt lat="43.79875" lon="1.67314">
        <ele>122.117281</ele>
        <time>2022-05-07T20:27:05.473Z</time>
      </trkpt>
      <trkpt lat="43.7986" lon="1.6731">
        <ele>121.590483</ele>
        <time>2022-05-07T20:27:07.805Z</time>
      </trkpt>
      <trkpt lat="43.79733" lon="1.67187">
        <ele>117.470396</ele>
        <time>2022-05-07T20:27:34.826Z</time>
      </trkpt>
      <trkpt lat="43.79722" lon="1.67172">
        <ele>117.458592</ele>
        <time>2022-05-07T20:27:37.920Z</time>
      </trkpt>
      <trkpt lat="43.7971" lon="1.67135">
        <ele>117.43498</ele>
        <time>2022-05-07T20:27:44.459Z</time>
      </trkpt>
      <trkpt lat="43.79716" lon="1.67114">
        <ele>117.422578</ele>
        <time>2022-05-07T20:27:47.993Z</time>
      </trkpt>
      <trkpt lat="43.79756" lon="1.67065">
        <ele>117.3797</ele>
        <time>2022-05-07T20:28:03.151Z</time>
      </trkpt>
      <trkpt lat="43.79761" lon="1.67059">
        <ele>117.374306</ele>
        <time>2022-05-07T20:28:05.285Z</time>
      </trkpt>
      <trkpt lat="43.79767" lon="1.67045">
        <ele>117.365289</ele>
        <time>2022-05-07T20:28:08.706Z</time>
      </trkpt>
      <trkpt lat="43.79709" lon="1.67007">
        <ele>118.555531</ele>
        <time>2022-05-07T20:28:31.520Z</time>
      </trkpt>
      <trkpt lat="43.7969" lon="1.67003">
        <ele>118.934198</ele>
        <time>2022-05-07T20:28:39.028Z</time>
      </trkpt>
      <trkpt lat="43.79672" lon="1.67008">
        <ele>119.280425</ele>
        <time>2022-05-07T20:28:45.919Z</time>
      </trkpt>
      <trkpt lat="43.79543" lon="1.6709">
        <ele>120.156734</ele>
        <time>2022-05-07T20:29:21.039Z</time>
      </trkpt>
      <trkpt lat="43.79528" lon="1.67099">
        <ele>119.954556</ele>
        <time>2022-05-07T20:29:23.901Z</time>
      </trkpt>
      <trkpt lat="43.79481" lon="1.67144">
        <ele>119.256219</ele>
        <time>2022-05-07T20:29:33.996Z</time>
      </trkpt>
      <trkpt lat="43.79463" lon="1.67152">
        <ele>119.029702</ele>
        <time>2022-05-07T20:29:36.978Z</time>
      </trkpt>
      <trkpt lat="43.79448" lon="1.67147">
        <ele>118.847156</ele>
        <time>2022-05-07T20:29:39.494Z</time>
      </trkpt>
      <trkpt lat="43.79426" lon="1.67128">
        <ele>118.684222</ele>
        <time>2022-05-07T20:29:43.937Z</time>
      </trkpt>
      <trkpt lat="43.79406" lon="1.67102">
        <ele>118.66778</ele>
        <time>2022-05-07T20:29:48.543Z</time>
      </trkpt>
      <trkpt lat="43.79372" lon="1.6703">
        <ele>118.629875</ele>
        <time>2022-05-07T20:30:00.902Z</time>
      </trkpt>
      <trkpt lat="43.79351" lon="1.67005">
        <ele>118.613215</ele>
        <time>2022-05-07T20:30:07.551Z</time>
      </trkpt>
      <trkpt lat="43.79263" lon="1.66943">
        <ele>119.614331</ele>
        <time>2022-05-07T20:30:40.190Z</time>
      </trkpt>
      <trkpt lat="43.79234" lon="1.66927">
        <ele>120.241321</ele>
        <time>2022-05-07T20:30:50.228Z</time>
      </trkpt>
      <trkpt lat="43.79151" lon="1.6691">
        <ele>121.965874</ele>
        <time>2022-05-07T20:31:16.727Z</time>
      </trkpt>
      <trkpt lat="43.78962" lon="1.66901">
        <ele>122.50906</ele>
        <time>2022-05-07T20:32:00.203Z</time>
      </trkpt>
      <trkpt lat="43.78945" lon="1.66905">
        <ele>122.241388</ele>
        <time>2022-05-07T20:32:03.858Z</time>
      </trkpt>
      <trkpt lat="43.78909" lon="1.66923">
        <ele>121.362679</ele>
        <time>2022-05-07T20:32:10.944Z</time>
      </trkpt>
      <trkpt lat="43.78853" lon="1.66953">
        <ele>119.969369</ele>
        <time>2022-05-07T20:32:20.777Z</time>
      </trkpt>
      <trkpt lat="43.78801" lon="1.66973">
        <ele>118.737437</ele>
        <time>2022-05-07T20:32:29.546Z</time>
      </trkpt>
      <trkpt lat="43.78796" lon="1.66975">
        <ele>118.602013</ele>
        <time>2022-05-07T20:32:30.536Z</time>
      </trkpt>
      <trkpt lat="43.78774" lon="1.66982">
        <ele>118.078723</ele>
        <time>2022-05-07T20:32:34.203Z</time>
      </trkpt>
      <trkpt lat="43.78756" lon="1.66983">
        <ele>117.636136</ele>
        <time>2022-05-07T20:32:37.222Z</time>
      </trkpt>
      <trkpt lat="43.78743" lon="1.66984">
        <ele>117.333717</ele>
        <time>2022-05-07T20:32:39.320Z</time>
      </trkpt>
      <trkpt lat="43.78736" lon="1.66983">
        <ele>117.151154</ele>
        <time>2022-05-07T20:32:40.609Z</time>
      </trkpt>
      <trkpt lat="43.78728" lon="1.66975">
        <ele>116.911798</ele>
        <time>2022-05-07T20:32:42.281Z</time>
      </trkpt>
      <trkpt lat="43.78721" lon="1.66966">
        <ele>116.696141</ele>
        <time>2022-05-07T20:32:43.724Z</time>
      </trkpt>
      <trkpt lat="43.7871" lon="1.6684">
        <ele>114.468093</ele>
        <time>2022-05-07T20:32:59.439Z</time>
      </trkpt>
      <trkpt lat="43.78703" lon="1.66825">
        <ele>114.165134</ele>
        <time>2022-05-07T20:33:01.599Z</time>
      </trkpt>
      <trkpt lat="43.78698" lon="1.66762">
        <ele>113.508831</ele>
        <time>2022-05-07T20:33:10.393Z</time>
      </trkpt>
      <trkpt lat="43.78668" lon="1.66624">
        <ele>112.177558</ele>
        <time>2022-05-07T20:33:30.788Z</time>
      </trkpt>
      <trkpt lat="43.78659" lon="1.66608">
        <ele>111.987543</ele>
        <time>2022-05-07T20:33:33.750Z</time>
      </trkpt>
      <trkpt lat="43.78648" lon="1.66598">
        <ele>111.824835</ele>
        <time>2022-05-07T20:33:35.849Z</time>
      </trkpt>
      <trkpt lat="43.78608" lon="1.6659">
        <ele>111.095861</ele>
        <time>2022-05-07T20:33:43.218Z</time>
      </trkpt>
      <trkpt lat="43.78591" lon="1.66574">
        <ele>110.706955</ele>
        <time>2022-05-07T20:33:46.973Z</time>
      </trkpt>
      <trkpt lat="43.78533" lon="1.66441">
        <ele>108.577933</ele>
        <time>2022-05-07T20:34:06.211Z</time>
      </trkpt>
      <trkpt lat="43.7847" lon="1.66307">
        <ele>107.640996</ele>
        <time>2022-05-07T20:34:28.001Z</time>
      </trkpt>
      <trkpt lat="43.78436" lon="1.6625">
        <ele>107.292354</ele>
        <time>2022-05-07T20:34:39.940Z</time>
      </trkpt>
      <trkpt lat="43.78418" lon="1.66198">
        <ele>107.256858</ele>
        <time>2022-05-07T20:34:49.583Z</time>
      </trkpt>
      <trkpt lat="43.78407" lon="1.66109">
        <ele>107.79462</ele>
        <time>2022-05-07T20:35:06.158Z</time>
      </trkpt>
      <trkpt lat="43.78394" lon="1.66053">
        <ele>108.150726</ele>
        <time>2022-05-07T20:35:17.575Z</time>
      </trkpt>
      <trkpt lat="43.78365" lon="1.65984">
        <ele>108.62322</ele>
        <time>2022-05-07T20:35:33.438Z</time>
      </trkpt>
      <trkpt lat="43.78255" lon="1.6579">
        <ele>109.732583</ele>
        <time>2022-05-07T20:36:17.099Z</time>
      </trkpt>
      <trkpt lat="43.78243" lon="1.65755">
        <ele>109.775559</ele>
        <time>2022-05-07T20:36:23.527Z</time>
      </trkpt>
      <trkpt lat="43.78226" lon="1.65673">
        <ele>109.866513</ele>
        <time>2022-05-07T20:36:37.583Z</time>
      </trkpt>
      <trkpt lat="43.78222" lon="1.6562">
        <ele>109.923232</ele>
        <time>2022-05-07T20:36:46.199Z</time>
      </trkpt>
      <trkpt lat="43.78224" lon="1.65535">
        <ele>109.999675</ele>
        <time>2022-05-07T20:36:59.782Z</time>
      </trkpt>
      <trkpt lat="43.7819" lon="1.65407">
        <ele>109.99618</ele>
        <time>2022-05-07T20:37:21.782Z</time>
      </trkpt>
      <trkpt lat="43.78186" lon="1.6525">
        <ele>109.9526</ele>
        <time>2022-05-07T20:37:46.838Z</time>
      </trkpt>
      <trkpt lat="43.78195" lon="1.65106">
        <ele>109.848043</ele>
        <time>2022-05-07T20:38:09.687Z</time>
      </trkpt>
      <trkpt lat="43.78193" lon="1.65075">
        <ele>109.825447</ele>
        <time>2022-05-07T20:38:14.555Z</time>
      </trkpt>
      <trkpt lat="43.78162" lon="1.64957">
        <ele>109.720854</ele>
        <time>2022-05-07T20:38:34.182Z</time>
      </trkpt>
      <trkpt lat="43.7816" lon="1.64839">
        <ele>109.621023</ele>
        <time>2022-05-07T20:38:52.763Z</time>
      </trkpt>
      <trkpt lat="43.78152" lon="1.64787">
        <ele>109.577324</ele>
        <time>2022-05-07T20:39:01.276Z</time>
      </trkpt>
      <trkpt lat="43.78043" lon="1.64489">
        <ele>109.03956</ele>
        <time>2022-05-07T20:39:54.024Z</time>
      </trkpt>
      <trkpt lat="43.78026" lon="1.6443">
        <ele>108.841265</ele>
        <time>2022-05-07T20:40:03.323Z</time>
      </trkpt>
      <trkpt lat="43.78012" lon="1.64188">
        <ele>107.712761</ele>
        <time>2022-05-07T20:40:37.887Z</time>
      </trkpt>
      <trkpt lat="43.78009" lon="1.64127">
        <ele>107.387098</ele>
        <time>2022-05-07T20:40:46.680Z</time>
      </trkpt>
      <trkpt lat="43.78013" lon="1.64077">
        <ele>107.22319</ele>
        <time>2022-05-07T20:40:53.959Z</time>
      </trkpt>
      <trkpt lat="43.78024" lon="1.64024">
        <ele>107.085315</ele>
        <time>2022-05-07T20:41:02.253Z</time>
      </trkpt>
      <trkpt lat="43.78035" lon="1.63972">
        <ele>106.949562</ele>
        <time>2022-05-07T20:41:10.659Z</time>
      </trkpt>
      <trkpt lat="43.78074" lon="1.63781">
        <ele>106.458794</ele>
        <time>2022-05-07T20:41:41.241Z</time>
      </trkpt>
      <trkpt lat="43.78087" lon="1.63747">
        <ele>106.367742</ele>
        <time>2022-05-07T20:41:47.067Z</time>
      </trkpt>
      <trkpt lat="43.78179" lon="1.63566">
        <ele>105.932259</ele>
        <time>2022-05-07T20:42:20.693Z</time>
      </trkpt>
      <trkpt lat="43.78182" lon="1.6356">
        <ele>105.92156</ele>
        <time>2022-05-07T20:42:21.832Z</time>
      </trkpt>
      <trkpt lat="43.7833" lon="1.6328">
        <ele>105.549133</ele>
        <time>2022-05-07T20:43:16.462Z</time>
      </trkpt>
      <trkpt lat="43.78475" lon="1.63066">
        <ele>105.090716</ele>
        <time>2022-05-07T20:44:01.956Z</time>
      </trkpt>
      <trkpt lat="43.78635" lon="1.62872">
        <ele>104.93882</ele>
        <time>2022-05-07T20:44:46.968Z</time>
      </trkpt>
      <trkpt lat="43.78698" lon="1.62798">
        <ele>105.499309</ele>
        <time>2022-05-07T20:45:07.916Z</time>
      </trkpt>
      <trkpt lat="43.78768" lon="1.6273">
        <ele>106.1535</ele>
        <time>2022-05-07T20:45:31.143Z</time>
      </trkpt>
      <trkpt lat="43.78848" lon="1.62677">
        <ele>107.015919</ele>
        <time>2022-05-07T20:45:55.075Z</time>
      </trkpt>
      <trkpt lat="43.78877" lon="1.62672">
        <ele>107.291751</ele>
        <time>2022-05-07T20:46:02.374Z</time>
      </trkpt>
      <trkpt lat="43.78908" lon="1.62679">
        <ele>107.603584</ele>
        <time>2022-05-07T20:46:10.413Z</time>
      </trkpt>
      <trkpt lat="43.78972" lon="1.62695">
        <ele>107.881298</ele>
        <time>2022-05-07T20:46:25.995Z</time>
      </trkpt>
      <trkpt lat="43.79007" lon="1.62687">
        <ele>108.01569</ele>
        <time>2022-05-07T20:46:34.336Z</time>
      </trkpt>
      <trkpt lat="43.79167" lon="1.62586">
        <ele>109.16441</ele>
        <time>2022-05-07T20:47:15.217Z</time>
      </trkpt>
      <trkpt lat="43.79324" lon="1.62583">
        <ele>111.749122</ele>
        <time>2022-05-07T20:47:59.802Z</time>
      </trkpt>
      <trkpt lat="43.7935" lon="1.62589">
        <ele>112.44764</ele>
        <time>2022-05-07T20:48:08.193Z</time>
      </trkpt>
      <trkpt lat="43.79373" lon="1.62596">
        <ele>113.064633</ele>
        <time>2022-05-07T20:48:16.420Z</time>
      </trkpt>
      <trkpt lat="43.79431" lon="1.6258">
        <ele>114.606517</ele>
        <time>2022-05-07T20:48:36.504Z</time>
      </trkpt>
      <trkpt lat="43.7946" lon="1.62561">
        <ele>116.489351</ele>
        <time>2022-05-07T20:48:49.307Z</time>
      </trkpt>
      <trkpt lat="43.79542" lon="1.62459">
        <ele>123.332606</ele>
        <time>2022-05-07T20:49:40.783Z</time>
      </trkpt>
      <trkpt lat="43.79545" lon="1.62455">
        <ele>123.615543</ele>
        <time>2022-05-07T20:49:44.165Z</time>
      </trkpt>
      <trkpt lat="43.79658" lon="1.62366">
        <ele>133.320953</ele>
        <time>2022-05-07T20:50:55.708Z</time>
      </trkpt>
      <trkpt lat="43.7969" lon="1.62352">
        <ele>135.961018</ele>
        <time>2022-05-07T20:51:15.403Z</time>
      </trkpt>
      <trkpt lat="43.79798" lon="1.6236">
        <ele>142.835942</ele>
        <time>2022-05-07T20:52:10.672Z</time>
      </trkpt>
      <trkpt lat="43.79861" lon="1.62401">
        <ele>146.179092</ele>
        <time>2022-05-07T20:52:38.064Z</time>
      </trkpt>
      <trkpt lat="43.79881" lon="1.624">
        <ele>147.137548</ele>
        <time>2022-05-07T20:52:44.430Z</time>
      </trkpt>
      <trkpt lat="43.79891" lon="1.62393">
        <ele>147.662944</ele>
        <time>2022-05-07T20:52:48.996Z</time>
      </trkpt>
      <trkpt lat="43.79911" lon="1.6237">
        <ele>148.856357</ele>
        <time>2022-05-07T20:52:57.153Z</time>
      </trkpt>
      <trkpt lat="43.7993" lon="1.62311">
        <ele>150.154716</ele>
        <time>2022-05-07T20:53:13.268Z</time>
      </trkpt>
      <trkpt lat="43.79948" lon="1.6228">
        <ele>150.948456</ele>
        <time>2022-05-07T20:53:21.973Z</time>
      </trkpt>
      <trkpt lat="43.80149" lon="1.62045">
        <ele>158.113868</ele>
        <time>2022-05-07T20:54:50.172Z</time>
      </trkpt>
      <trkpt lat="43.80164" lon="1.62034">
        <ele>158.583623</ele>
        <time>2022-05-07T20:54:55.731Z</time>
      </trkpt>
      <trkpt lat="43.802" lon="1.62031">
        <ele>158.980573</ele>
        <time>2022-05-07T20:55:07.112Z</time>
      </trkpt>
      <trkpt lat="43.8025" lon="1.62047">
        <ele>159.508257</ele>
        <time>2022-05-07T20:55:21.207Z</time>
      </trkpt>
      <trkpt lat="43.80265" lon="1.62044">
        <ele>159.657606</ele>
        <time>2022-05-07T20:55:24.521Z</time>
      </trkpt>
      <trkpt lat="43.80306" lon="1.62021">
        <ele>160.117387</ele>
        <time>2022-05-07T20:55:35.831Z</time>
      </trkpt>
      <trkpt lat="43.80327" lon="1.62018">
        <ele>160.329071</ele>
        <time>2022-05-07T20:55:40.558Z</time>
      </trkpt>
      <trkpt lat="43.80348" lon="1.6203">
        <ele>160.407148</ele>
        <time>2022-05-07T20:55:45.822Z</time>
      </trkpt>
      <trkpt lat="43.80363" lon="1.6205">
        <ele>160.251097</ele>
        <time>2022-05-07T20:55:49.891Z</time>
      </trkpt>
      <trkpt lat="43.80415" lon="1.62175">
        <ele>159.476473</ele>
        <time>2022-05-07T20:56:11.133Z</time>
      </trkpt>
      <trkpt lat="43.80443" lon="1.6218">
        <ele>159.269408</ele>
        <time>2022-05-07T20:56:16.471Z</time>
      </trkpt>
      <trkpt lat="43.80461" lon="1.62168">
        <ele>159.074948</ele>
        <time>2022-05-07T20:56:20.022Z</time>
      </trkpt>
      <trkpt lat="43.80468" lon="1.62147">
        <ele>158.470743</ele>
        <time>2022-05-07T20:56:23.108Z</time>
      </trkpt>
      <trkpt lat="43.80455" lon="1.62071">
        <ele>156.391965</ele>
        <time>2022-05-07T20:56:32.985Z</time>
      </trkpt>
      <trkpt lat="43.80441" lon="1.62021">
        <ele>154.991702</ele>
        <time>2022-05-07T20:56:38.903Z</time>
      </trkpt>
      <trkpt lat="43.80415" lon="1.61963">
        <ele>153.182057</ele>
        <time>2022-05-07T20:56:46.392Z</time>
      </trkpt>
      <trkpt lat="43.80403" lon="1.61918">
        <ele>151.383776</ele>
        <time>2022-05-07T20:56:51.480Z</time>
      </trkpt>
      <trkpt lat="43.80389" lon="1.61886">
        <ele>149.499446</ele>
        <time>2022-05-07T20:56:55.473Z</time>
      </trkpt>
      <trkpt lat="43.80368" lon="1.61874">
        <ele>147.923584</ele>
        <time>2022-05-07T20:56:58.755Z</time>
      </trkpt>
      <trkpt lat="43.80331" lon="1.61815">
        <ele>144.039805</ele>
        <time>2022-05-07T20:57:06.772Z</time>
      </trkpt>
      <trkpt lat="43.80291" lon="1.61771">
        <ele>140.503228</ele>
        <time>2022-05-07T20:57:13.954Z</time>
      </trkpt>
      <trkpt lat="43.80259" lon="1.61709">
        <ele>136.380362</ele>
        <time>2022-05-07T20:57:21.698Z</time>
      </trkpt>
      <trkpt lat="43.80249" lon="1.61668">
        <ele>134.021369</ele>
        <time>2022-05-07T20:57:26.177Z</time>
      </trkpt>
      <trkpt lat="43.8023" lon="1.6153">
        <ele>126.409948</ele>
        <time>2022-05-07T20:57:40.475Z</time>
      </trkpt>
      <trkpt lat="43.80187" lon="1.61414">
        <ele>120.194222</ele>
        <time>2022-05-07T20:57:53.915Z</time>
      </trkpt>
      <trkpt lat="43.80182" lon="1.61389">
        <ele>118.990896</ele>
        <time>2022-05-07T20:57:56.464Z</time>
      </trkpt>
      <trkpt lat="43.80184" lon="1.61361">
        <ele>117.644544</ele>
        <time>2022-05-07T20:57:59.504Z</time>
      </trkpt>
      <trkpt lat="43.80223" lon="1.61218">
        <ele>112.33414</ele>
        <time>2022-05-07T20:58:16.148Z</time>
      </trkpt>
      <trkpt lat="43.80216" lon="1.61184">
        <ele>111.413343</ele>
        <time>2022-05-07T20:58:20.022Z</time>
      </trkpt>
      <trkpt lat="43.80218" lon="1.61151">
        <ele>110.565478</ele>
        <time>2022-05-07T20:58:23.908Z</time>
      </trkpt>
      <trkpt lat="43.80248" lon="1.61002">
        <ele>108.06146</ele>
        <time>2022-05-07T20:58:43.632Z</time>
      </trkpt>
      <trkpt lat="43.80237" lon="1.60995">
        <ele>108.023428</ele>
        <time>2022-05-07T20:58:45.771Z</time>
      </trkpt>
      <trkpt lat="43.80113" lon="1.60914">
        <ele>107.637632</ele>
        <time>2022-05-07T20:59:18.808Z</time>
      </trkpt>
      <trkpt lat="43.80108" lon="1.60911">
        <ele>107.637632</ele>
        <time>2022-05-07T20:59:19.905Z</time>
      </trkpt>
      <trkpt lat="43.80093" lon="1.60901">
        <ele>107.637632</ele>
        <time>2022-05-07T20:59:24.568Z</time>
      </trkpt>
      <trkpt lat="43.80085" lon="1.60891">
        <ele>107.637632</ele>
        <time>2022-05-07T20:59:27.441Z</time>
      </trkpt>
      <trkpt lat="43.80065" lon="1.60873">
        <ele>107.637632</ele>
        <time>2022-05-07T20:59:34.213Z</time>
      </trkpt>
      <trkpt lat="43.80071" lon="1.60874">
        <ele>107.637632</ele>
        <time>2022-05-07T20:59:35.942Z</time>
      </trkpt>
      <trkpt lat="43.8007" lon="1.60871">
        <ele>107.637632</ele>
        <time>2022-05-07T20:59:36.600Z</time>
      </trkpt>
      <trkpt lat="43.80068" lon="1.60869">
        <ele>107.637632</ele>
        <time>2022-05-07T20:59:37.178Z</time>
      </trkpt>
      <trkpt lat="43.80066" lon="1.60868">
        <ele>107.637632</ele>
        <time>2022-05-07T20:59:37.744Z</time>
      </trkpt>
      <trkpt lat="43.80064" lon="1.60866">
        <ele>107.637632</ele>
        <time>2022-05-07T20:59:38.333Z</time>
      </trkpt>
      <trkpt lat="43.80062" lon="1.60865">
        <ele>107.637632</ele>
        <time>2022-05-07T20:59:38.825Z</time>
      </trkpt>
      <trkpt lat="43.80061" lon="1.60864">
        <ele>107.637632</ele>
        <time>2022-05-07T20:59:39.241Z</time>
      </trkpt>
      <trkpt lat="43.80061" lon="1.60862">
        <ele>107.637632</ele>
        <time>2022-05-07T20:59:39.627Z</time>
      </trkpt>
      <trkpt lat="43.80061" lon="1.6086">
        <ele>107.637632</ele>
        <time>2022-05-07T20:59:39.987Z</time>
      </trkpt>
      <trkpt lat="43.80062" lon="1.60858">
        <ele>107.637632</ele>
        <time>2022-05-07T20:59:40.432Z</time>
      </trkpt>
      <trkpt lat="43.80064" lon="1.60857">
        <ele>107.637632</ele>
        <time>2022-05-07T20:59:40.908Z</time>
      </trkpt>
      <trkpt lat="43.80065" lon="1.60855">
        <ele>107.637632</ele>
        <time>2022-05-07T20:59:41.448Z</time>
      </trkpt>
      <trkpt lat="43.80067" lon="1.60853">
        <ele>107.637632</ele>
        <time>2022-05-07T20:59:41.926Z</time>
      </trkpt>
      <trkpt lat="43.80069" lon="1.60852">
        <ele>107.637632</ele>
        <time>2022-05-07T20:59:42.477Z</time>
      </trkpt>
      <trkpt lat="43.80071" lon="1.60852">
        <ele>107.637632</ele>
        <time>2022-05-07T20:59:42.936Z</time>
      </trkpt>
      <trkpt lat="43.80072" lon="1.60851">
        <ele>107.637632</ele>
        <time>2022-05-07T20:59:43.365Z</time>
      </trkpt>
      <trkpt lat="43.80074" lon="1.60851">
        <ele>107.637632</ele>
        <time>2022-05-07T20:59:43.727Z</time>
      </trkpt>
      <trkpt lat="43.80074" lon="1.60851">
        <ele>107.637632</ele>
        <time>2022-05-07T20:59:43.875Z</time>
      </trkpt>
    </trkseg>
  </trk>
</gpx>